ETD486 OMAA-WMKK
Flight info
| Callsign | ETD486 |
|---|---|
| Flight time | 6h 41m |
| Altitude | 37000 |
| Route | KANIP N318 GEVED N881 AMBOS M700 PARAR N571 GUNIP Y347 KAKAK KAKAK3J |
| Aircraft | B789/H-SDE1E2E3FGHIJ2J3J4J5M1RWXY/LB1D1 |
Departure
| Time | 2026-05-07 17:56 |
|---|---|
| Airport | Zayed International Airport (OMAA) |
Arrival
| Time | 2026-05-08 00:38 |
|---|---|
| Airport | Kuala Lumpur International Airport (WMKK) |
| Time | Latitude | Longitude | Altitude | Speed | Heading |
|---|---|---|---|---|---|
| 2026-05-07 17:08 | 24.43146 | 54.64251 | 97 ft | 0 kts | 218° |
| 2026-05-07 17:42 | 24.43151 | 54.64256 | 97 ft | 2 kts | 218° |
| 2026-05-07 17:42 | 24.43163 | 54.64266 | 97 ft | 2 kts | 218° |
| 2026-05-07 17:42 | 24.43175 | 54.64276 | 97 ft | 2 kts | 218° |
| 2026-05-07 17:43 | 24.43187 | 54.64286 | 97 ft | 2 kts | 218° |
| 2026-05-07 17:43 | 24.43199 | 54.64297 | 97 ft | 2 kts | 218° |
| 2026-05-07 17:43 | 24.43211 | 54.64307 | 97 ft | 2 kts | 218° |
| 2026-05-07 17:43 | 24.43219 | 54.64314 | 97 ft | 0 kts | 218° |
| 2026-05-07 17:44 | 24.43231 | 54.64321 | 97 ft | 2 kts | 182° |
| 2026-05-07 17:44 | 24.43246 | 54.64319 | 97 ft | 2 kts | 144° |
| 2026-05-07 17:44 | 24.43253 | 54.64311 | 97 ft | 1 kts | 127° |
| 2026-05-07 17:44 | 24.43254 | 54.64309 | 97 ft | 0 kts | 127° |
| 2026-05-07 17:47 | 24.43251 | 54.64313 | 97 ft | 2 kts | 131° |
| 2026-05-07 17:47 | 24.43231 | 54.64338 | 97 ft | 5 kts | 131° |
| 2026-05-07 17:48 | 24.43207 | 54.64368 | 97 ft | 5 kts | 131° |
| 2026-05-07 17:48 | 24.43180 | 54.64403 | 97 ft | 7 kts | 130° |
| 2026-05-07 17:48 | 24.43139 | 54.64459 | 97 ft | 11 kts | 128° |
| 2026-05-07 17:48 | 24.43090 | 54.64527 | 97 ft | 11 kts | 128° |
| 2026-05-07 17:49 | 24.43070 | 54.64614 | 97 ft | 12 kts | 70° |
| 2026-05-07 17:49 | 24.43135 | 54.64683 | 97 ft | 13 kts | 37° |
| 2026-05-07 17:49 | 24.43208 | 54.64751 | 97 ft | 13 kts | 59° |
| 2026-05-07 17:49 | 24.43207 | 54.64845 | 97 ft | 12 kts | 117° |
| 2026-05-07 17:50 | 24.43159 | 54.64919 | 97 ft | 11 kts | 127° |
| 2026-05-07 17:50 | 24.43112 | 54.64987 | 97 ft | 10 kts | 128° |
| 2026-05-07 17:50 | 24.43066 | 54.65051 | 97 ft | 10 kts | 128° |
| 2026-05-07 17:50 | 24.43018 | 54.65119 | 97 ft | 11 kts | 128° |
| 2026-05-07 17:51 | 24.42966 | 54.65193 | 97 ft | 12 kts | 128° |
| 2026-05-07 17:51 | 24.42910 | 54.65271 | 97 ft | 13 kts | 128° |
| 2026-05-07 17:51 | 24.42851 | 54.65356 | 97 ft | 14 kts | 128° |
| 2026-05-07 17:51 | 24.42786 | 54.65445 | 97 ft | 15 kts | 128° |
| 2026-05-07 17:52 | 24.42719 | 54.65540 | 97 ft | 16 kts | 128° |
| 2026-05-07 17:52 | 24.42650 | 54.65639 | 97 ft | 16 kts | 127° |
| 2026-05-07 17:52 | 24.42576 | 54.65745 | 97 ft | 17 kts | 128° |
| 2026-05-07 17:52 | 24.42497 | 54.65854 | 97 ft | 18 kts | 128° |
| 2026-05-07 17:53 | 24.42417 | 54.65967 | 97 ft | 19 kts | 128° |
| 2026-05-07 17:53 | 24.42333 | 54.66085 | 97 ft | 19 kts | 128° |
| 2026-05-07 17:53 | 24.42247 | 54.66208 | 97 ft | 20 kts | 129° |
| 2026-05-07 17:53 | 24.42160 | 54.66328 | 97 ft | 19 kts | 128° |
| 2026-05-07 17:54 | 24.42110 | 54.66398 | 97 ft | 10 kts | 128° |
| 2026-05-07 17:54 | 24.42067 | 54.66459 | 97 ft | 9 kts | 128° |
| 2026-05-07 17:54 | 24.42041 | 54.66525 | 97 ft | 9 kts | 99° |
| 2026-05-07 17:54 | 24.42057 | 54.66595 | 97 ft | 9 kts | 56° |
| 2026-05-07 17:55 | 24.42107 | 54.66648 | 97 ft | 10 kts | 39° |
| 2026-05-07 17:55 | 24.42165 | 54.66691 | 97 ft | 9 kts | 12° |
| 2026-05-07 17:55 | 24.42204 | 54.66669 | 97 ft | 0 kts | 307° |
| 2026-05-07 17:55 | 24.42206 | 54.66666 | 97 ft | 3 kts | 308° |
| 2026-05-07 17:56 | 24.42319 | 54.66508 | 97 ft | 62 kts | 308° |
| 2026-05-07 17:56 | 24.42748 | 54.65903 | 97 ft | 136 kts | 308° |
| 2026-05-07 17:56 | 24.43446 | 54.64919 | 314 ft | 179 kts | 307° |
| 2026-05-07 17:56 | 24.44214 | 54.63812 | 819 ft | 199 kts | 307° |
| 2026-05-07 17:57 | 24.45149 | 54.62476 | 751 ft | 235 kts | 308° |
| 2026-05-07 17:57 | 24.45850 | 54.61496 | 1069 ft | 256 kts | 309° |
| 2026-05-07 17:57 | 24.47405 | 54.59325 | 1721 ft | 296 kts | 308° |
| 2026-05-07 17:57 | 24.48679 | 54.57532 | 2782 ft | 304 kts | 308° |
| 2026-05-07 17:58 | 24.49983 | 54.55699 | 3917 ft | 309 kts | 308° |
| 2026-05-07 17:58 | 24.51351 | 54.53921 | 5334 ft | 301 kts | 310° |
| 2026-05-07 17:58 | 24.52555 | 54.52146 | 6724 ft | 291 kts | 307° |
| 2026-05-07 17:58 | 24.53770 | 54.50396 | 7757 ft | 291 kts | 307° |
| 2026-05-07 17:59 | 24.54959 | 54.48678 | 8966 ft | 283 kts | 307° |
| 2026-05-07 17:59 | 24.56165 | 54.46960 | 9857 ft | 286 kts | 309° |
| 2026-05-07 17:59 | 24.57715 | 54.45652 | 10548 ft | 289 kts | 340° |
| 2026-05-07 17:59 | 24.59713 | 54.45432 | 11152 ft | 293 kts | 11° |
| 2026-05-07 18:00 | 24.61549 | 54.46342 | 11768 ft | 296 kts | 36° |
| 2026-05-07 18:00 | 24.62963 | 54.47971 | 12377 ft | 299 kts | 58° |
| 2026-05-07 18:00 | 24.63773 | 54.50083 | 12991 ft | 301 kts | 77° |
| 2026-05-07 18:00 | 24.63932 | 54.52379 | 13582 ft | 304 kts | 95° |
| 2026-05-07 18:01 | 24.63421 | 54.54629 | 14159 ft | 307 kts | 114° |
| 2026-05-07 18:01 | 24.62422 | 54.56680 | 14740 ft | 309 kts | 120° |
| 2026-05-07 18:01 | 24.61323 | 54.58711 | 15297 ft | 312 kts | 121° |
| 2026-05-07 18:01 | 24.60173 | 54.60776 | 15841 ft | 313 kts | 121° |
| 2026-05-07 18:02 | 24.57840 | 54.64896 | 16643 ft | 319 kts | 122° |
| 2026-05-07 18:02 | 24.56657 | 54.66974 | 17052 ft | 321 kts | 122° |
| 2026-05-07 18:02 | 24.55460 | 54.69069 | 17456 ft | 323 kts | 122° |
| 2026-05-07 18:03 | 24.54272 | 54.71148 | 17844 ft | 325 kts | 122° |
| 2026-05-07 18:03 | 24.53078 | 54.73236 | 18222 ft | 326 kts | 122° |
| 2026-05-07 18:03 | 24.51857 | 54.75368 | 18598 ft | 328 kts | 122° |
| 2026-05-07 18:03 | 24.50647 | 54.77482 | 18961 ft | 330 kts | 122° |
| 2026-05-07 18:04 | 24.49415 | 54.79631 | 19321 ft | 332 kts | 122° |
| 2026-05-07 18:04 | 24.48193 | 54.81764 | 19668 ft | 334 kts | 122° |
| 2026-05-07 18:04 | 24.46956 | 54.83922 | 20010 ft | 336 kts | 122° |
| 2026-05-07 18:04 | 24.45709 | 54.86095 | 20346 ft | 337 kts | 122° |
| 2026-05-07 18:05 | 24.44891 | 54.87520 | 20562 ft | 339 kts | 122° |
| 2026-05-07 18:05 | 24.43621 | 54.89732 | 20889 ft | 340 kts | 122° |
| 2026-05-07 18:05 | 24.42504 | 54.91678 | 21170 ft | 342 kts | 122° |
| 2026-05-07 18:05 | 24.41241 | 54.93876 | 21481 ft | 343 kts | 122° |
| 2026-05-07 18:06 | 24.39955 | 54.96112 | 21788 ft | 345 kts | 122° |
| 2026-05-07 18:06 | 24.38851 | 54.98033 | 22047 ft | 346 kts | 122° |
| 2026-05-07 18:06 | 24.37574 | 55.00252 | 22338 ft | 348 kts | 122° |
| 2026-05-07 18:06 | 24.36276 | 55.02507 | 22627 ft | 350 kts | 122° |
| 2026-05-07 18:07 | 24.34977 | 55.04764 | 22910 ft | 351 kts | 122° |
| 2026-05-07 18:07 | 24.33675 | 55.07023 | 23186 ft | 353 kts | 122° |
| 2026-05-07 18:07 | 24.32346 | 55.09329 | 23515 ft | 357 kts | 122° |
| 2026-05-07 18:07 | 24.31026 | 55.11618 | 23941 ft | 357 kts | 122° |
| 2026-05-07 18:08 | 24.29705 | 55.13907 | 24299 ft | 359 kts | 122° |
| 2026-05-07 18:08 | 24.28361 | 55.16238 | 24640 ft | 361 kts | 122° |
| 2026-05-07 18:08 | 24.27008 | 55.18588 | 24980 ft | 363 kts | 122° |
| 2026-05-07 18:08 | 24.25658 | 55.20932 | 25313 ft | 365 kts | 122° |
| 2026-05-07 18:09 | 24.24277 | 55.23326 | 25645 ft | 367 kts | 122° |
| 2026-05-07 18:09 | 24.23142 | 55.25291 | 25910 ft | 368 kts | 122° |
| 2026-05-07 18:09 | 24.21815 | 55.27654 | 26303 ft | 367 kts | 124° |
| 2026-05-07 18:09 | 24.20436 | 55.30034 | 26567 ft | 369 kts | 126° |
| 2026-05-07 18:10 | 24.19059 | 55.32408 | 26801 ft | 372 kts | 124° |
| 2026-05-07 18:10 | 24.17861 | 55.34944 | 27055 ft | 377 kts | 117° |
| 2026-05-07 18:10 | 24.16784 | 55.37577 | 27321 ft | 379 kts | 117° |
| 2026-05-07 18:10 | 24.15716 | 55.40231 | 27561 ft | 382 kts | 117° |
| 2026-05-07 18:11 | 24.14650 | 55.42917 | 27803 ft | 384 kts | 116° |
| 2026-05-07 18:11 | 24.13953 | 55.44686 | 27961 ft | 385 kts | 116° |
| 2026-05-07 18:11 | 24.12537 | 55.48306 | 28269 ft | 388 kts | 116° |
| 2026-05-07 18:11 | 24.11475 | 55.51033 | 28505 ft | 390 kts | 116° |
| 2026-05-07 18:12 | 24.10420 | 55.53752 | 28731 ft | 392 kts | 116° |
| 2026-05-07 18:12 | 24.09343 | 55.56531 | 28955 ft | 394 kts | 116° |
| 2026-05-07 18:12 | 24.08269 | 55.59304 | 29169 ft | 397 kts | 116° |
| 2026-05-07 18:12 | 24.07204 | 55.62056 | 29382 ft | 399 kts | 116° |
| 2026-05-07 18:13 | 24.06064 | 55.64858 | 29590 ft | 399 kts | 120° |
| 2026-05-07 18:13 | 24.04786 | 55.67561 | 29805 ft | 400 kts | 121° |
| 2026-05-07 18:13 | 24.03508 | 55.70257 | 30000 ft | 402 kts | 121° |
| 2026-05-07 18:13 | 24.02400 | 55.72592 | 30177 ft | 404 kts | 121° |
| 2026-05-07 18:14 | 24.01197 | 55.75120 | 30340 ft | 406 kts | 121° |
| 2026-05-07 18:14 | 24.00210 | 55.77193 | 30500 ft | 407 kts | 121° |
| 2026-05-07 18:14 | 23.98895 | 55.79955 | 30697 ft | 408 kts | 121° |
| 2026-05-07 18:14 | 23.97564 | 55.82744 | 30871 ft | 411 kts | 121° |
| 2026-05-07 18:15 | 23.96585 | 55.84795 | 30998 ft | 412 kts | 121° |
| 2026-05-07 18:15 | 23.95273 | 55.87542 | 31186 ft | 414 kts | 121° |
| 2026-05-07 18:15 | 23.93933 | 55.90349 | 31377 ft | 415 kts | 121° |
| 2026-05-07 18:15 | 23.92598 | 55.93141 | 31538 ft | 417 kts | 121° |
| 2026-05-07 18:16 | 23.91242 | 55.95976 | 31715 ft | 419 kts | 121° |
| 2026-05-07 18:16 | 23.89891 | 55.98796 | 31886 ft | 420 kts | 121° |
| 2026-05-07 18:16 | 23.88528 | 56.01642 | 32065 ft | 422 kts | 121° |
| 2026-05-07 18:16 | 23.87156 | 56.04507 | 32242 ft | 424 kts | 121° |
| 2026-05-07 18:17 | 23.85795 | 56.07344 | 32397 ft | 426 kts | 121° |
| 2026-05-07 18:17 | 23.84409 | 56.10236 | 32567 ft | 427 kts | 121° |
| 2026-05-07 18:17 | 23.83046 | 56.13076 | 32732 ft | 429 kts | 121° |
| 2026-05-07 18:17 | 23.81648 | 56.15986 | 32892 ft | 430 kts | 121° |
| 2026-05-07 18:18 | 23.80263 | 56.18868 | 33053 ft | 432 kts | 121° |
| 2026-05-07 18:18 | 23.78845 | 56.21818 | 33210 ft | 434 kts | 121° |
| 2026-05-07 18:18 | 23.77456 | 56.24707 | 33355 ft | 435 kts | 121° |
| 2026-05-07 18:18 | 23.76038 | 56.27653 | 33523 ft | 436 kts | 120° |
| 2026-05-07 18:19 | 23.74634 | 56.30566 | 33659 ft | 438 kts | 120° |
| 2026-05-07 18:19 | 23.73209 | 56.33521 | 33802 ft | 440 kts | 120° |
| 2026-05-07 18:19 | 23.71783 | 56.36479 | 33970 ft | 441 kts | 120° |
| 2026-05-07 18:19 | 23.70351 | 56.39448 | 34110 ft | 442 kts | 120° |
| 2026-05-07 18:20 | 23.68912 | 56.42431 | 34289 ft | 443 kts | 120° |
| 2026-05-07 18:20 | 23.67475 | 56.45407 | 34438 ft | 444 kts | 120° |
| 2026-05-07 18:20 | 23.66023 | 56.48412 | 34597 ft | 445 kts | 120° |
| 2026-05-07 18:20 | 23.64583 | 56.51387 | 34744 ft | 446 kts | 120° |
| 2026-05-07 18:21 | 23.63129 | 56.54390 | 34893 ft | 447 kts | 120° |
| 2026-05-07 18:21 | 23.61667 | 56.57411 | 35041 ft | 448 kts | 120° |
| 2026-05-07 18:21 | 23.60210 | 56.60416 | 35191 ft | 449 kts | 120° |
| 2026-05-07 18:21 | 23.58768 | 56.63392 | 35333 ft | 450 kts | 120° |
| 2026-05-07 18:22 | 23.57298 | 56.66421 | 35499 ft | 450 kts | 121° |
| 2026-05-07 18:22 | 23.54355 | 56.72481 | 35727 ft | 453 kts | 121° |
| 2026-05-07 18:23 | 23.53019 | 56.75231 | 35861 ft | 453 kts | 121° |
| 2026-05-07 18:23 | 23.50669 | 56.80062 | 36050 ft | 454 kts | 121° |
| 2026-05-07 18:23 | 23.49167 | 56.83145 | 36166 ft | 455 kts | 121° |
| 2026-05-07 18:24 | 23.47977 | 56.85586 | 36253 ft | 456 kts | 121° |
| 2026-05-07 18:24 | 23.44995 | 56.91705 | 36446 ft | 459 kts | 121° |
| 2026-05-07 18:24 | 23.43642 | 56.94476 | 36548 ft | 460 kts | 121° |
| 2026-05-07 18:25 | 23.42138 | 56.97558 | 36655 ft | 461 kts | 121° |
| 2026-05-07 18:25 | 23.39129 | 57.03714 | 36766 ft | 457 kts | 121° |
| 2026-05-07 18:26 | 23.36246 | 57.09875 | 36781 ft | 462 kts | 118° |
| 2026-05-07 18:26 | 23.33359 | 57.16233 | 36782 ft | 469 kts | 118° |
| 2026-05-07 18:27 | 23.30447 | 57.22645 | 36781 ft | 477 kts | 118° |
| 2026-05-07 18:27 | 23.27489 | 57.29160 | 36785 ft | 484 kts | 118° |
| 2026-05-07 18:28 | 23.24490 | 57.35757 | 36783 ft | 492 kts | 118° |
| 2026-05-07 18:28 | 23.21426 | 57.42488 | 36784 ft | 500 kts | 118° |
| 2026-05-07 18:29 | 23.18653 | 57.48571 | 36786 ft | 508 kts | 118° |
| 2026-05-07 18:29 | 23.15498 | 57.55486 | 36783 ft | 515 kts | 118° |
| 2026-05-07 18:30 | 23.12291 | 57.62504 | 36778 ft | 516 kts | 118° |
| 2026-05-07 18:30 | 23.09112 | 57.69449 | 36771 ft | 514 kts | 118° |
| 2026-05-07 18:31 | 23.05925 | 57.76441 | 36774 ft | 514 kts | 117° |
| 2026-05-07 18:31 | 23.03279 | 57.83668 | 36782 ft | 517 kts | 108° |
| 2026-05-07 18:32 | 23.01988 | 57.91390 | 36783 ft | 519 kts | 95° |
| 2026-05-07 18:32 | 23.01863 | 57.99196 | 36775 ft | 520 kts | 91° |
| 2026-05-07 18:33 | 23.01850 | 58.07121 | 36778 ft | 520 kts | 91° |
| 2026-05-07 18:33 | 23.01841 | 58.15012 | 36776 ft | 520 kts | 91° |
| 2026-05-07 18:34 | 23.01832 | 58.22852 | 36777 ft | 520 kts | 91° |
| 2026-05-07 18:34 | 23.01821 | 58.30664 | 36778 ft | 520 kts | 91° |
| 2026-05-07 18:35 | 23.01861 | 58.38505 | 36779 ft | 520 kts | 88° |
| 2026-05-07 18:35 | 23.02115 | 58.46375 | 36777 ft | 521 kts | 88° |
| 2026-05-07 18:36 | 23.02377 | 58.54231 | 36780 ft | 521 kts | 88° |
| 2026-05-07 18:36 | 23.02638 | 58.62126 | 36778 ft | 521 kts | 88° |
| 2026-05-07 18:37 | 23.02895 | 58.70020 | 36770 ft | 521 kts | 89° |
| 2026-05-07 18:37 | 23.03149 | 58.77904 | 36773 ft | 521 kts | 89° |
| 2026-05-07 18:38 | 23.03400 | 58.85828 | 36773 ft | 522 kts | 89° |
| 2026-05-07 18:38 | 23.03647 | 58.93751 | 36776 ft | 522 kts | 89° |
| 2026-05-07 18:39 | 23.03886 | 59.01619 | 36777 ft | 523 kts | 89° |
| 2026-05-07 18:39 | 23.04123 | 59.09568 | 36774 ft | 523 kts | 89° |
| 2026-05-07 18:40 | 23.04355 | 59.17489 | 36778 ft | 523 kts | 88° |
| 2026-05-07 18:40 | 23.04582 | 59.25363 | 36775 ft | 523 kts | 88° |
| 2026-05-07 18:41 | 23.04805 | 59.33241 | 36777 ft | 523 kts | 89° |
| 2026-05-07 18:41 | 23.04976 | 59.41190 | 36780 ft | 523 kts | 89° |
| 2026-05-07 18:42 | 23.05104 | 59.49088 | 36778 ft | 523 kts | 89° |
| 2026-05-07 18:42 | 23.05228 | 59.56987 | 36783 ft | 523 kts | 89° |
| 2026-05-07 18:43 | 23.05346 | 59.64878 | 36779 ft | 523 kts | 89° |
| 2026-05-07 18:43 | 23.05458 | 59.72741 | 36773 ft | 522 kts | 90° |
| 2026-05-07 18:44 | 23.05568 | 59.80643 | 36774 ft | 523 kts | 89° |
| 2026-05-07 18:44 | 23.05468 | 59.88503 | 36768 ft | 522 kts | 96° |
| 2026-05-07 18:45 | 23.04439 | 59.96272 | 36773 ft | 521 kts | 101° |
| 2026-05-07 18:45 | 23.03139 | 60.04013 | 36776 ft | 521 kts | 102° |
| 2026-05-07 18:46 | 23.01762 | 60.11763 | 36775 ft | 518 kts | 102° |
| 2026-05-07 18:46 | 23.00382 | 60.19398 | 36779 ft | 517 kts | 102° |
| 2026-05-07 18:47 | 22.98990 | 60.27040 | 36776 ft | 516 kts | 102° |
| 2026-05-07 18:47 | 22.97596 | 60.34659 | 36778 ft | 515 kts | 102° |
| 2026-05-07 18:48 | 22.96199 | 60.42270 | 36775 ft | 514 kts | 102° |
| 2026-05-07 18:48 | 22.94801 | 60.49863 | 36777 ft | 513 kts | 102° |
| 2026-05-07 18:49 | 22.93398 | 60.57459 | 36777 ft | 512 kts | 102° |
| 2026-05-07 18:49 | 22.92006 | 60.64975 | 36778 ft | 511 kts | 102° |
| 2026-05-07 18:50 | 22.90605 | 60.72514 | 36774 ft | 509 kts | 102° |
| 2026-05-07 18:50 | 22.89198 | 60.80066 | 36775 ft | 508 kts | 102° |
| 2026-05-07 18:51 | 22.87795 | 60.87579 | 36776 ft | 507 kts | 102° |
| 2026-05-07 18:51 | 22.86403 | 60.95021 | 36776 ft | 507 kts | 102° |
| 2026-05-07 18:52 | 22.84991 | 61.02544 | 36777 ft | 508 kts | 102° |
| 2026-05-07 18:52 | 22.83584 | 61.10012 | 36777 ft | 507 kts | 102° |
| 2026-05-07 18:53 | 22.82169 | 61.17508 | 36777 ft | 507 kts | 102° |
| 2026-05-07 18:53 | 22.80758 | 61.24966 | 36777 ft | 507 kts | 102° |
| 2026-05-07 18:54 | 22.79336 | 61.32462 | 36777 ft | 507 kts | 102° |
| 2026-05-07 18:54 | 22.77910 | 61.39951 | 36777 ft | 507 kts | 102° |
| 2026-05-07 18:55 | 22.76481 | 61.47441 | 36778 ft | 507 kts | 102° |
| 2026-05-07 18:55 | 22.75046 | 61.54945 | 36778 ft | 507 kts | 102° |
| 2026-05-07 18:56 | 22.73614 | 61.62413 | 36778 ft | 507 kts | 102° |
| 2026-05-07 18:56 | 22.72216 | 61.69684 | 36775 ft | 507 kts | 102° |
| 2026-05-07 18:57 | 22.70779 | 61.77135 | 36775 ft | 507 kts | 102° |
| 2026-05-07 18:57 | 22.69340 | 61.84584 | 36775 ft | 507 kts | 102° |
| 2026-05-07 18:58 | 22.67894 | 61.92042 | 36775 ft | 507 kts | 102° |
| 2026-05-07 18:58 | 22.66438 | 61.99538 | 36776 ft | 507 kts | 102° |
| 2026-05-07 18:59 | 22.64991 | 62.06966 | 36776 ft | 507 kts | 102° |
| 2026-05-07 18:59 | 22.63529 | 62.14449 | 36776 ft | 507 kts | 102° |
| 2026-05-07 19:00 | 22.62074 | 62.21880 | 36777 ft | 507 kts | 102° |
| 2026-05-07 19:00 | 22.60606 | 62.29357 | 36778 ft | 507 kts | 102° |
| 2026-05-07 19:01 | 22.59137 | 62.36819 | 36777 ft | 507 kts | 102° |
| 2026-05-07 19:01 | 22.57664 | 62.44278 | 36777 ft | 507 kts | 102° |
| 2026-05-07 19:02 | 22.56191 | 62.51729 | 36778 ft | 507 kts | 102° |
| 2026-05-07 19:02 | 22.54713 | 62.59180 | 36778 ft | 507 kts | 102° |
| 2026-05-07 19:03 | 22.53227 | 62.66655 | 36783 ft | 515 kts | 103° |
| 2026-05-07 19:03 | 22.51717 | 62.74233 | 36775 ft | 517 kts | 103° |
| 2026-05-07 19:04 | 22.50200 | 62.81821 | 36774 ft | 516 kts | 103° |
| 2026-05-07 19:04 | 22.48679 | 62.89411 | 36775 ft | 516 kts | 103° |
| 2026-05-07 19:05 | 22.47152 | 62.97015 | 36783 ft | 516 kts | 103° |
| 2026-05-07 19:05 | 22.45630 | 63.04572 | 36792 ft | 516 kts | 103° |
| 2026-05-07 19:06 | 22.43560 | 63.11989 | 36797 ft | 514 kts | 112° |
| 2026-05-07 19:06 | 22.39250 | 63.22538 | 36803 ft | 514 kts | 116° |
| 2026-05-07 19:07 | 22.36188 | 63.29520 | 36803 ft | 514 kts | 116° |
| 2026-05-07 19:07 | 22.33103 | 63.36447 | 36804 ft | 513 kts | 116° |
| 2026-05-07 19:08 | 22.30007 | 63.43363 | 36805 ft | 513 kts | 116° |
| 2026-05-07 19:08 | 22.26882 | 63.50322 | 36804 ft | 513 kts | 116° |
| 2026-05-07 19:09 | 22.23777 | 63.57221 | 36805 ft | 514 kts | 116° |
| 2026-05-07 19:09 | 22.20650 | 63.64161 | 36804 ft | 514 kts | 116° |
| 2026-05-07 19:10 | 22.17525 | 63.71088 | 36802 ft | 513 kts | 117° |
| 2026-05-07 19:10 | 22.14402 | 63.77997 | 36802 ft | 514 kts | 117° |
| 2026-05-07 19:11 | 22.11276 | 63.84901 | 36801 ft | 513 kts | 117° |
| 2026-05-07 19:11 | 22.08153 | 63.91796 | 36802 ft | 514 kts | 117° |
| 2026-05-07 19:12 | 22.05008 | 63.98727 | 36803 ft | 514 kts | 117° |
| 2026-05-07 19:12 | 22.01874 | 64.05622 | 36803 ft | 513 kts | 117° |
| 2026-05-07 19:13 | 21.98737 | 64.12517 | 36803 ft | 513 kts | 117° |
| 2026-05-07 19:13 | 21.95598 | 64.19407 | 36803 ft | 513 kts | 117° |
| 2026-05-07 19:14 | 21.92452 | 64.26302 | 36803 ft | 513 kts | 117° |
| 2026-05-07 19:14 | 21.89319 | 64.33159 | 36804 ft | 513 kts | 117° |
| 2026-05-07 19:15 | 21.86147 | 64.40093 | 36804 ft | 513 kts | 117° |
| 2026-05-07 19:15 | 21.83001 | 64.46958 | 36805 ft | 513 kts | 117° |
| 2026-05-07 19:16 | 21.79834 | 64.53862 | 36805 ft | 514 kts | 117° |
| 2026-05-07 19:16 | 21.76679 | 64.60731 | 36805 ft | 513 kts | 117° |
| 2026-05-07 19:17 | 21.73523 | 64.67592 | 36802 ft | 513 kts | 117° |
| 2026-05-07 19:17 | 21.70371 | 64.74435 | 36802 ft | 513 kts | 117° |
| 2026-05-07 19:18 | 21.67193 | 64.81326 | 36802 ft | 513 kts | 117° |
| 2026-05-07 19:18 | 21.64028 | 64.88180 | 36803 ft | 513 kts | 117° |
| 2026-05-07 19:19 | 21.60854 | 64.95042 | 36803 ft | 514 kts | 117° |
| 2026-05-07 19:19 | 21.57668 | 65.01923 | 36803 ft | 514 kts | 117° |
| 2026-05-07 19:20 | 21.54479 | 65.08803 | 36804 ft | 514 kts | 117° |
| 2026-05-07 19:20 | 21.51296 | 65.15659 | 36804 ft | 514 kts | 117° |
| 2026-05-07 19:21 | 21.48110 | 65.22513 | 36803 ft | 514 kts | 117° |
| 2026-05-07 19:21 | 21.44923 | 65.29359 | 36804 ft | 514 kts | 117° |
| 2026-05-07 19:22 | 21.41720 | 65.36231 | 36804 ft | 514 kts | 117° |
| 2026-05-07 19:22 | 21.38527 | 65.43073 | 36805 ft | 514 kts | 117° |
| 2026-05-07 19:23 | 21.35321 | 65.49933 | 36805 ft | 514 kts | 117° |
| 2026-05-07 19:23 | 21.32129 | 65.56754 | 36805 ft | 514 kts | 117° |
| 2026-05-07 19:24 | 21.28909 | 65.63627 | 36805 ft | 514 kts | 117° |
| 2026-05-07 19:24 | 21.25700 | 65.70469 | 36802 ft | 514 kts | 117° |
| 2026-05-07 19:25 | 21.22501 | 65.77277 | 36802 ft | 514 kts | 117° |
| 2026-05-07 19:25 | 21.19274 | 65.84138 | 36802 ft | 514 kts | 117° |
| 2026-05-07 19:26 | 21.16064 | 65.90953 | 36802 ft | 514 kts | 117° |
| 2026-05-07 19:26 | 21.12844 | 65.97781 | 36802 ft | 514 kts | 117° |
| 2026-05-07 19:27 | 21.09699 | 66.04641 | 36802 ft | 512 kts | 116° |
| 2026-05-07 19:27 | 21.06604 | 66.11449 | 36802 ft | 507 kts | 116° |
| 2026-05-07 19:28 | 21.03539 | 66.18182 | 36802 ft | 504 kts | 116° |
| 2026-05-07 19:28 | 21.00483 | 66.24888 | 36802 ft | 502 kts | 116° |
| 2026-05-07 19:29 | 20.97432 | 66.31579 | 36802 ft | 501 kts | 116° |
| 2026-05-07 19:29 | 20.94367 | 66.38295 | 36803 ft | 501 kts | 116° |
| 2026-05-07 19:30 | 20.91321 | 66.44967 | 36802 ft | 501 kts | 116° |
| 2026-05-07 19:30 | 20.88276 | 66.51623 | 36803 ft | 501 kts | 116° |
| 2026-05-07 19:31 | 20.85213 | 66.58310 | 36803 ft | 501 kts | 116° |
| 2026-05-07 19:31 | 20.82138 | 66.65013 | 36803 ft | 501 kts | 116° |
| 2026-05-07 19:32 | 20.79073 | 66.71687 | 36803 ft | 501 kts | 116° |
| 2026-05-07 19:32 | 20.76018 | 66.78328 | 36803 ft | 501 kts | 116° |
| 2026-05-07 19:33 | 20.72955 | 66.84982 | 36803 ft | 501 kts | 116° |
| 2026-05-07 19:33 | 20.69869 | 66.91676 | 36803 ft | 501 kts | 116° |
| 2026-05-07 19:34 | 20.66802 | 66.98323 | 36803 ft | 501 kts | 116° |
| 2026-05-07 19:34 | 20.63711 | 67.05007 | 36803 ft | 502 kts | 116° |
| 2026-05-07 19:35 | 20.60611 | 67.11705 | 36803 ft | 503 kts | 116° |
| 2026-05-07 19:35 | 20.57535 | 67.18344 | 36803 ft | 503 kts | 116° |
| 2026-05-07 19:36 | 20.54442 | 67.25014 | 36803 ft | 502 kts | 116° |
| 2026-05-07 19:36 | 20.51330 | 67.31715 | 36803 ft | 502 kts | 116° |
| 2026-05-07 19:37 | 20.48228 | 67.38388 | 36804 ft | 502 kts | 116° |
| 2026-05-07 19:37 | 20.45124 | 67.45055 | 36803 ft | 502 kts | 116° |
| 2026-05-07 19:38 | 20.42010 | 67.51736 | 36803 ft | 503 kts | 116° |
| 2026-05-07 19:38 | 20.38907 | 67.58384 | 36803 ft | 502 kts | 116° |
| 2026-05-07 19:39 | 20.35791 | 67.65053 | 36803 ft | 502 kts | 116° |
| 2026-05-07 19:39 | 20.32671 | 67.71720 | 36803 ft | 502 kts | 116° |
| 2026-05-07 19:40 | 20.29532 | 67.78421 | 36802 ft | 503 kts | 116° |
| 2026-05-07 19:40 | 20.26436 | 67.85023 | 36802 ft | 503 kts | 116° |
| 2026-05-07 19:41 | 20.23344 | 67.91610 | 36803 ft | 502 kts | 116° |
| 2026-05-07 19:41 | 20.20204 | 67.98288 | 36803 ft | 503 kts | 116° |
| 2026-05-07 19:42 | 20.17085 | 68.04915 | 36803 ft | 502 kts | 116° |
| 2026-05-07 19:42 | 20.13957 | 68.11553 | 36803 ft | 502 kts | 116° |
| 2026-05-07 19:43 | 20.10798 | 68.18247 | 36803 ft | 503 kts | 116° |
| 2026-05-07 19:43 | 20.07670 | 68.24869 | 36803 ft | 502 kts | 116° |
| 2026-05-07 19:44 | 20.04528 | 68.31513 | 36802 ft | 503 kts | 116° |
| 2026-05-07 19:44 | 20.01392 | 68.38137 | 36802 ft | 503 kts | 116° |
| 2026-05-07 19:45 | 19.98250 | 68.44765 | 36804 ft | 503 kts | 116° |
| 2026-05-07 19:45 | 19.95117 | 68.51366 | 36810 ft | 502 kts | 116° |
| 2026-05-07 19:46 | 19.91955 | 68.58021 | 36815 ft | 502 kts | 116° |
| 2026-05-07 19:46 | 19.88808 | 68.64635 | 36820 ft | 502 kts | 116° |
| 2026-05-07 19:47 | 19.85662 | 68.71241 | 36825 ft | 502 kts | 116° |
| 2026-05-07 19:47 | 19.82505 | 68.77861 | 36830 ft | 502 kts | 116° |
| 2026-05-07 19:48 | 19.79334 | 68.84502 | 36830 ft | 502 kts | 116° |
| 2026-05-07 19:48 | 19.76176 | 68.91111 | 36830 ft | 503 kts | 116° |
| 2026-05-07 19:49 | 19.73020 | 68.97708 | 36830 ft | 503 kts | 117° |
| 2026-05-07 19:49 | 19.69859 | 69.04308 | 36830 ft | 503 kts | 117° |
| 2026-05-07 19:50 | 19.66689 | 69.10918 | 36830 ft | 501 kts | 117° |
| 2026-05-07 19:50 | 19.63536 | 69.17481 | 36830 ft | 501 kts | 117° |
| 2026-05-07 19:51 | 19.60369 | 69.24068 | 36830 ft | 501 kts | 117° |
| 2026-05-07 19:51 | 19.57223 | 69.30603 | 36830 ft | 501 kts | 117° |
| 2026-05-07 19:52 | 19.54096 | 69.37236 | 36831 ft | 501 kts | 116° |
| 2026-05-07 19:52 | 19.51067 | 69.43834 | 36830 ft | 501 kts | 116° |
| 2026-05-07 19:53 | 19.48007 | 69.50508 | 36830 ft | 501 kts | 116° |
| 2026-05-07 19:53 | 19.44978 | 69.57107 | 36830 ft | 501 kts | 116° |
| 2026-05-07 19:54 | 19.41918 | 69.63769 | 36830 ft | 501 kts | 116° |
| 2026-05-07 19:54 | 19.38864 | 69.70412 | 36830 ft | 501 kts | 116° |
| 2026-05-07 19:55 | 19.35827 | 69.77010 | 36830 ft | 501 kts | 116° |
| 2026-05-07 19:55 | 19.32775 | 69.83630 | 36830 ft | 501 kts | 116° |
| 2026-05-07 19:56 | 19.29727 | 69.90237 | 36830 ft | 501 kts | 116° |
| 2026-05-07 19:56 | 19.26666 | 69.96864 | 36830 ft | 501 kts | 116° |
| 2026-05-07 19:57 | 19.23598 | 70.03497 | 36830 ft | 501 kts | 116° |
| 2026-05-07 19:57 | 19.20540 | 70.10102 | 36830 ft | 501 kts | 116° |
| 2026-05-07 19:58 | 19.17484 | 70.16695 | 36830 ft | 501 kts | 116° |
| 2026-05-07 19:58 | 19.14403 | 70.23335 | 36830 ft | 501 kts | 116° |
| 2026-05-07 19:59 | 19.11341 | 70.29925 | 36830 ft | 501 kts | 116° |
| 2026-05-07 19:59 | 19.08262 | 70.36545 | 36830 ft | 501 kts | 116° |
| 2026-05-07 20:00 | 19.05195 | 70.43133 | 36830 ft | 501 kts | 116° |
| 2026-05-07 20:00 | 19.02128 | 70.49712 | 36830 ft | 500 kts | 116° |
| 2026-05-07 20:01 | 18.99055 | 70.56298 | 36829 ft | 499 kts | 116° |
| 2026-05-07 20:01 | 18.96001 | 70.62833 | 36829 ft | 497 kts | 116° |
| 2026-05-07 20:02 | 18.92931 | 70.69392 | 36829 ft | 495 kts | 116° |
| 2026-05-07 20:02 | 18.89885 | 70.75893 | 36830 ft | 494 kts | 116° |
| 2026-05-07 20:03 | 18.86858 | 70.82349 | 36831 ft | 493 kts | 116° |
| 2026-05-07 20:03 | 18.83821 | 70.88831 | 36830 ft | 492 kts | 116° |
| 2026-05-07 20:04 | 18.80775 | 70.95319 | 36830 ft | 492 kts | 116° |
| 2026-05-07 20:04 | 18.77743 | 71.01765 | 36830 ft | 491 kts | 116° |
| 2026-05-07 20:05 | 18.74714 | 71.08199 | 36830 ft | 491 kts | 116° |
| 2026-05-07 20:05 | 18.71665 | 71.14663 | 36830 ft | 491 kts | 116° |
| 2026-05-07 20:06 | 18.68634 | 71.21085 | 36830 ft | 491 kts | 116° |
| 2026-05-07 20:06 | 18.65594 | 71.27520 | 36830 ft | 491 kts | 116° |
| 2026-05-07 20:07 | 18.62534 | 71.33990 | 36829 ft | 491 kts | 116° |
| 2026-05-07 20:07 | 18.59490 | 71.40421 | 36829 ft | 491 kts | 116° |
| 2026-05-07 20:08 | 18.56439 | 71.46859 | 36829 ft | 491 kts | 116° |
| 2026-05-07 20:08 | 18.53387 | 71.53291 | 36829 ft | 491 kts | 116° |
| 2026-05-07 20:09 | 18.50342 | 71.59705 | 36829 ft | 491 kts | 116° |
| 2026-05-07 20:10 | 18.45726 | 71.69410 | 36830 ft | 491 kts | 117° |
| 2026-05-07 20:10 | 18.42687 | 71.75791 | 36830 ft | 491 kts | 117° |
| 2026-05-07 20:11 | 18.39613 | 71.82240 | 36830 ft | 491 kts | 117° |
| 2026-05-07 20:11 | 18.36556 | 71.88648 | 36830 ft | 491 kts | 117° |
| 2026-05-07 20:12 | 18.33481 | 71.95084 | 36830 ft | 491 kts | 117° |
| 2026-05-07 20:12 | 18.30404 | 72.01518 | 36829 ft | 491 kts | 117° |
| 2026-05-07 20:13 | 18.27332 | 72.07935 | 36829 ft | 491 kts | 117° |
| 2026-05-07 20:13 | 18.24256 | 72.14353 | 36829 ft | 491 kts | 117° |
| 2026-05-07 20:14 | 18.21194 | 72.20737 | 36829 ft | 491 kts | 117° |
| 2026-05-07 20:14 | 18.18103 | 72.27174 | 36829 ft | 491 kts | 117° |
| 2026-05-07 20:15 | 18.15034 | 72.33558 | 36828 ft | 491 kts | 117° |
| 2026-05-07 20:15 | 18.11946 | 72.39975 | 36828 ft | 491 kts | 117° |
| 2026-05-07 20:16 | 18.08863 | 72.46376 | 36828 ft | 491 kts | 117° |
| 2026-05-07 20:16 | 18.05780 | 72.52769 | 36828 ft | 491 kts | 117° |
| 2026-05-07 20:17 | 18.02685 | 72.59180 | 36828 ft | 491 kts | 117° |
| 2026-05-07 20:17 | 17.99582 | 72.65602 | 36828 ft | 491 kts | 117° |
| 2026-05-07 20:18 | 17.96491 | 72.71992 | 36829 ft | 491 kts | 117° |
| 2026-05-07 20:18 | 17.93392 | 72.78390 | 36829 ft | 491 kts | 117° |
| 2026-05-07 20:19 | 17.90301 | 72.84767 | 36829 ft | 491 kts | 117° |
| 2026-05-07 20:19 | 17.87195 | 72.91169 | 36831 ft | 491 kts | 117° |
| 2026-05-07 20:20 | 17.84108 | 72.97525 | 36831 ft | 491 kts | 117° |
| 2026-05-07 20:20 | 17.81006 | 73.03905 | 36830 ft | 490 kts | 117° |
| 2026-05-07 20:21 | 17.77908 | 73.10269 | 36830 ft | 488 kts | 117° |
| 2026-05-07 20:21 | 17.74842 | 73.16563 | 36830 ft | 487 kts | 117° |
| 2026-05-07 20:22 | 17.71773 | 73.22855 | 36829 ft | 486 kts | 117° |
| 2026-05-07 20:22 | 17.68688 | 73.29172 | 36830 ft | 486 kts | 117° |
| 2026-05-07 20:23 | 17.65588 | 73.35512 | 36829 ft | 486 kts | 117° |
| 2026-05-07 20:23 | 17.62510 | 73.41801 | 36829 ft | 486 kts | 117° |
| 2026-05-07 20:24 | 17.59432 | 73.48083 | 36829 ft | 486 kts | 117° |
| 2026-05-07 20:24 | 17.56319 | 73.54433 | 36828 ft | 486 kts | 117° |
| 2026-05-07 20:25 | 17.53246 | 73.60693 | 36828 ft | 486 kts | 117° |
| 2026-05-07 20:25 | 17.50152 | 73.66988 | 36831 ft | 486 kts | 117° |
| 2026-05-07 20:26 | 17.47098 | 73.73199 | 36831 ft | 486 kts | 117° |
| 2026-05-07 20:26 | 17.44002 | 73.79488 | 36830 ft | 486 kts | 117° |
| 2026-05-07 20:27 | 17.40906 | 73.85770 | 36826 ft | 486 kts | 117° |
| 2026-05-07 20:27 | 17.37799 | 73.92069 | 36821 ft | 486 kts | 117° |
| 2026-05-07 20:28 | 17.34700 | 73.98345 | 36813 ft | 486 kts | 117° |
| 2026-05-07 20:28 | 17.31596 | 74.04626 | 36806 ft | 486 kts | 117° |
| 2026-05-07 20:29 | 17.28500 | 74.10883 | 36803 ft | 486 kts | 117° |
| 2026-05-07 20:29 | 17.25674 | 74.16589 | 36802 ft | 486 kts | 117° |
| 2026-05-07 20:30 | 17.24078 | 74.19810 | 36802 ft | 486 kts | 117° |
| 2026-05-07 20:30 | 17.20956 | 74.26109 | 36801 ft | 486 kts | 117° |
| 2026-05-07 20:31 | 17.17840 | 74.32392 | 36801 ft | 486 kts | 117° |
| 2026-05-07 20:31 | 17.14729 | 74.38660 | 36801 ft | 486 kts | 117° |
| 2026-05-07 20:32 | 17.11626 | 74.44907 | 36800 ft | 486 kts | 117° |
| 2026-05-07 20:32 | 17.08500 | 74.51190 | 36801 ft | 487 kts | 117° |
| 2026-05-07 20:33 | 17.05374 | 74.57469 | 36801 ft | 489 kts | 117° |
| 2026-05-07 20:33 | 17.02230 | 74.63781 | 36800 ft | 491 kts | 117° |
| 2026-05-07 20:34 | 16.99064 | 74.70128 | 36803 ft | 492 kts | 117° |
| 2026-05-07 20:34 | 16.95880 | 74.76509 | 36803 ft | 494 kts | 117° |
| 2026-05-07 20:35 | 16.92717 | 74.82840 | 36802 ft | 494 kts | 117° |
| 2026-05-07 20:35 | 16.89534 | 74.89206 | 36803 ft | 494 kts | 117° |
| 2026-05-07 20:36 | 16.86351 | 74.95561 | 36802 ft | 492 kts | 117° |
| 2026-05-07 20:36 | 16.83200 | 75.01845 | 36803 ft | 490 kts | 116° |
| 2026-05-07 20:37 | 16.80051 | 75.08122 | 36802 ft | 488 kts | 116° |
| 2026-05-07 20:37 | 16.76902 | 75.14394 | 36802 ft | 488 kts | 116° |
| 2026-05-07 20:38 | 16.73745 | 75.20686 | 36802 ft | 488 kts | 116° |
| 2026-05-07 20:38 | 16.70613 | 75.26915 | 36802 ft | 488 kts | 116° |
| 2026-05-07 20:39 | 16.67446 | 75.33207 | 36801 ft | 488 kts | 116° |
| 2026-05-07 20:39 | 16.64300 | 75.39452 | 36801 ft | 488 kts | 116° |
| 2026-05-07 20:40 | 16.61133 | 75.45743 | 36802 ft | 488 kts | 115° |
| 2026-05-07 20:40 | 16.58184 | 75.52058 | 36801 ft | 488 kts | 114° |
| 2026-05-07 20:41 | 16.55224 | 75.58441 | 36800 ft | 487 kts | 114° |
| 2026-05-07 20:41 | 16.52289 | 75.64777 | 36800 ft | 487 kts | 114° |
| 2026-05-07 20:42 | 16.49336 | 75.71146 | 36804 ft | 488 kts | 114° |
| 2026-05-07 20:42 | 16.46386 | 75.77503 | 36804 ft | 488 kts | 114° |
| 2026-05-07 20:43 | 16.43430 | 75.83872 | 36804 ft | 488 kts | 114° |
| 2026-05-07 20:43 | 16.40481 | 75.90217 | 36821 ft | 487 kts | 114° |
| 2026-05-07 20:44 | 16.37523 | 75.96574 | 36832 ft | 488 kts | 114° |
| 2026-05-07 20:44 | 16.34538 | 76.02947 | 36827 ft | 488 kts | 114° |
| 2026-05-07 20:45 | 16.31547 | 76.09301 | 36807 ft | 488 kts | 115° |
| 2026-05-07 20:45 | 16.28565 | 76.15627 | 36842 ft | 487 kts | 115° |
| 2026-05-07 20:46 | 16.25585 | 76.21942 | 36884 ft | 488 kts | 115° |
| 2026-05-07 20:46 | 16.22592 | 76.28280 | 36927 ft | 488 kts | 115° |
| 2026-05-07 20:47 | 16.19590 | 76.34630 | 36963 ft | 488 kts | 115° |
| 2026-05-07 20:47 | 16.16607 | 76.40934 | 36963 ft | 488 kts | 115° |
| 2026-05-07 20:48 | 16.13602 | 76.47278 | 36963 ft | 488 kts | 115° |
| 2026-05-07 20:48 | 16.10603 | 76.53604 | 36963 ft | 488 kts | 115° |
| 2026-05-07 20:49 | 16.07592 | 76.59950 | 36963 ft | 488 kts | 115° |
| 2026-05-07 20:49 | 16.04587 | 76.66276 | 36965 ft | 488 kts | 115° |
| 2026-05-07 20:50 | 16.01586 | 76.72587 | 36967 ft | 488 kts | 115° |
| 2026-05-07 20:50 | 15.98570 | 76.78924 | 36966 ft | 488 kts | 115° |
| 2026-05-07 20:51 | 15.95563 | 76.85239 | 36966 ft | 489 kts | 115° |
| 2026-05-07 20:51 | 15.92557 | 76.91546 | 36966 ft | 490 kts | 115° |
| 2026-05-07 20:52 | 15.89531 | 76.97889 | 36965 ft | 491 kts | 115° |
| 2026-05-07 20:52 | 15.86498 | 77.04241 | 36965 ft | 492 kts | 115° |
| 2026-05-07 20:53 | 15.83457 | 77.10599 | 36964 ft | 492 kts | 115° |
| 2026-05-07 20:53 | 15.80420 | 77.16944 | 36964 ft | 492 kts | 115° |
| 2026-05-07 20:54 | 15.77367 | 77.23319 | 36964 ft | 492 kts | 115° |
| 2026-05-07 20:54 | 15.74333 | 77.29649 | 36964 ft | 492 kts | 115° |
| 2026-05-07 20:55 | 15.71282 | 77.36025 | 36964 ft | 492 kts | 115° |
| 2026-05-07 20:55 | 15.68266 | 77.42358 | 36964 ft | 492 kts | 115° |
| 2026-05-07 20:56 | 15.65246 | 77.48699 | 36964 ft | 492 kts | 115° |
| 2026-05-07 20:56 | 15.62205 | 77.55080 | 36963 ft | 492 kts | 115° |
| 2026-05-07 20:57 | 15.59179 | 77.61421 | 36963 ft | 492 kts | 115° |
| 2026-05-07 20:57 | 15.56150 | 77.67764 | 36966 ft | 492 kts | 115° |
| 2026-05-07 20:58 | 15.53118 | 77.74110 | 36966 ft | 492 kts | 115° |
| 2026-05-07 20:58 | 15.50084 | 77.80453 | 36966 ft | 492 kts | 115° |
| 2026-05-07 20:59 | 15.47050 | 77.86789 | 36965 ft | 492 kts | 115° |
| 2026-05-07 20:59 | 15.43993 | 77.93167 | 36965 ft | 492 kts | 115° |
| 2026-05-07 21:00 | 15.40957 | 77.99498 | 36965 ft | 492 kts | 115° |
| 2026-05-07 21:00 | 15.37920 | 78.05823 | 36965 ft | 492 kts | 115° |
| 2026-05-07 21:01 | 15.34851 | 78.12167 | 36965 ft | 492 kts | 116° |
| 2026-05-07 21:01 | 15.31774 | 78.18476 | 36966 ft | 492 kts | 116° |
| 2026-05-07 21:02 | 15.28702 | 78.24764 | 36965 ft | 492 kts | 116° |
| 2026-05-07 21:02 | 15.25596 | 78.31117 | 36964 ft | 492 kts | 116° |
| 2026-05-07 21:03 | 15.22517 | 78.37405 | 36964 ft | 492 kts | 116° |
| 2026-05-07 21:03 | 15.19417 | 78.43732 | 36964 ft | 492 kts | 116° |
| 2026-05-07 21:04 | 15.16335 | 78.50019 | 36968 ft | 492 kts | 116° |
| 2026-05-07 21:04 | 15.13229 | 78.56348 | 36974 ft | 492 kts | 116° |
| 2026-05-07 21:05 | 15.10134 | 78.62649 | 36978 ft | 492 kts | 116° |
| 2026-05-07 21:05 | 15.07016 | 78.68990 | 36987 ft | 492 kts | 116° |
| 2026-05-07 21:06 | 15.03931 | 78.75259 | 36992 ft | 492 kts | 116° |
| 2026-05-07 21:06 | 15.00810 | 78.81593 | 36993 ft | 492 kts | 116° |
| 2026-05-07 21:07 | 14.97705 | 78.87893 | 36993 ft | 491 kts | 116° |
| 2026-05-07 21:07 | 14.94617 | 78.94152 | 36993 ft | 490 kts | 115° |
| 2026-05-07 21:08 | 14.91507 | 79.00449 | 36971 ft | 489 kts | 115° |
| 2026-05-07 21:08 | 14.88436 | 79.06665 | 36921 ft | 487 kts | 115° |
| 2026-05-07 21:09 | 14.85361 | 79.12887 | 36872 ft | 485 kts | 115° |
| 2026-05-07 21:09 | 14.82286 | 79.19102 | 36825 ft | 484 kts | 115° |
| 2026-05-07 21:10 | 14.79243 | 79.25245 | 36801 ft | 483 kts | 115° |
| 2026-05-07 21:10 | 14.76191 | 79.31403 | 36803 ft | 483 kts | 115° |
| 2026-05-07 21:11 | 14.73112 | 79.37608 | 36801 ft | 483 kts | 115° |
| 2026-05-07 21:11 | 14.68542 | 79.46810 | 36800 ft | 483 kts | 115° |
| 2026-05-07 21:12 | 14.65459 | 79.53011 | 36800 ft | 483 kts | 115° |
| 2026-05-07 21:12 | 14.62394 | 79.59171 | 36798 ft | 483 kts | 115° |
| 2026-05-07 21:13 | 14.59335 | 79.65312 | 36798 ft | 483 kts | 116° |
| 2026-05-07 21:13 | 14.56258 | 79.71488 | 36806 ft | 483 kts | 116° |
| 2026-05-07 21:14 | 14.53187 | 79.77647 | 36802 ft | 483 kts | 116° |
| 2026-05-07 21:14 | 14.50111 | 79.83807 | 36802 ft | 483 kts | 115° |
| 2026-05-07 21:15 | 14.47031 | 79.89972 | 36801 ft | 483 kts | 115° |
| 2026-05-07 21:15 | 14.43954 | 79.96125 | 36803 ft | 483 kts | 115° |
| 2026-05-07 21:16 | 14.40877 | 80.02277 | 36802 ft | 483 kts | 116° |
| 2026-05-07 21:16 | 14.37805 | 80.08410 | 36802 ft | 483 kts | 116° |
| 2026-05-07 21:17 | 14.34704 | 80.14600 | 36804 ft | 483 kts | 115° |
| 2026-05-07 21:17 | 14.31636 | 80.20715 | 36801 ft | 483 kts | 116° |
| 2026-05-07 21:18 | 14.28546 | 80.26873 | 36802 ft | 483 kts | 115° |
| 2026-05-07 21:18 | 14.25462 | 80.33010 | 36803 ft | 483 kts | 115° |
| 2026-05-07 21:19 | 14.22366 | 80.39169 | 36798 ft | 483 kts | 116° |
| 2026-05-07 21:19 | 14.19287 | 80.45289 | 36801 ft | 483 kts | 116° |
| 2026-05-07 21:20 | 14.16196 | 80.51428 | 36799 ft | 484 kts | 116° |
| 2026-05-07 21:20 | 14.13107 | 80.57557 | 36801 ft | 483 kts | 115° |
| 2026-05-07 21:21 | 14.10013 | 80.63692 | 36798 ft | 483 kts | 116° |
| 2026-05-07 21:21 | 14.06900 | 80.69859 | 36804 ft | 483 kts | 116° |
| 2026-05-07 21:22 | 14.03818 | 80.75960 | 36804 ft | 483 kts | 116° |
| 2026-05-07 21:22 | 14.00720 | 80.82095 | 36807 ft | 484 kts | 116° |
| 2026-05-07 21:23 | 13.97706 | 80.88264 | 36803 ft | 483 kts | 115° |
| 2026-05-07 21:23 | 13.94678 | 80.94483 | 36804 ft | 485 kts | 115° |
| 2026-05-07 21:24 | 13.91663 | 81.00674 | 36805 ft | 488 kts | 114° |
| 2026-05-07 21:24 | 13.88604 | 81.06957 | 36801 ft | 491 kts | 114° |
| 2026-05-07 21:25 | 13.85540 | 81.13247 | 36801 ft | 494 kts | 114° |
| 2026-05-07 21:25 | 13.82454 | 81.19578 | 36801 ft | 494 kts | 114° |
| 2026-05-07 21:26 | 13.79389 | 81.25861 | 36801 ft | 493 kts | 114° |
| 2026-05-07 21:26 | 13.76307 | 81.32172 | 36801 ft | 494 kts | 114° |
| 2026-05-07 21:27 | 13.73245 | 81.38440 | 36801 ft | 494 kts | 114° |
| 2026-05-07 21:27 | 13.70152 | 81.44763 | 36801 ft | 493 kts | 114° |
| 2026-05-07 21:28 | 13.67075 | 81.51069 | 36800 ft | 493 kts | 114° |
| 2026-05-07 21:28 | 13.64000 | 81.57369 | 36800 ft | 493 kts | 114° |
| 2026-05-07 21:29 | 13.60945 | 81.63622 | 36800 ft | 493 kts | 114° |
| 2026-05-07 21:29 | 13.57865 | 81.69924 | 36804 ft | 494 kts | 114° |
| 2026-05-07 21:30 | 13.54785 | 81.76218 | 36804 ft | 494 kts | 114° |
| 2026-05-07 21:30 | 13.51699 | 81.82520 | 36803 ft | 493 kts | 114° |
| 2026-05-07 21:31 | 13.48626 | 81.88794 | 36804 ft | 494 kts | 114° |
| 2026-05-07 21:31 | 13.45527 | 81.95111 | 36803 ft | 494 kts | 114° |
| 2026-05-07 21:32 | 13.42449 | 82.01383 | 36803 ft | 494 kts | 114° |
| 2026-05-07 21:32 | 13.39337 | 82.07718 | 36803 ft | 493 kts | 114° |
| 2026-05-07 21:33 | 13.36264 | 82.13970 | 36803 ft | 493 kts | 114° |
| 2026-05-07 21:33 | 13.33474 | 82.19642 | 36803 ft | 494 kts | 114° |
| 2026-05-07 21:34 | 13.30383 | 82.25924 | 36803 ft | 494 kts | 114° |
| 2026-05-07 21:34 | 13.27273 | 82.32236 | 36802 ft | 494 kts | 114° |
| 2026-05-07 21:35 | 13.24172 | 82.38527 | 36803 ft | 494 kts | 114° |
| 2026-05-07 21:35 | 13.21051 | 82.44852 | 36802 ft | 493 kts | 114° |
| 2026-05-07 21:36 | 13.17948 | 82.51140 | 36802 ft | 494 kts | 114° |
| 2026-05-07 21:36 | 13.14818 | 82.57472 | 36802 ft | 493 kts | 114° |
| 2026-05-07 21:37 | 13.11717 | 82.63746 | 36801 ft | 494 kts | 114° |
| 2026-05-07 21:37 | 13.08598 | 82.70046 | 36805 ft | 492 kts | 115° |
| 2026-05-07 21:38 | 13.05506 | 82.76287 | 36805 ft | 489 kts | 114° |
| 2026-05-07 21:38 | 13.02425 | 82.82507 | 36806 ft | 487 kts | 114° |
| 2026-05-07 21:39 | 12.99355 | 82.88700 | 36805 ft | 486 kts | 115° |
| 2026-05-07 21:39 | 12.96277 | 82.94907 | 36804 ft | 485 kts | 115° |
| 2026-05-07 21:40 | 12.93219 | 83.01065 | 36804 ft | 486 kts | 115° |
| 2026-05-07 21:40 | 12.90131 | 83.07278 | 36804 ft | 487 kts | 115° |
| 2026-05-07 21:41 | 12.87210 | 83.13148 | 36801 ft | 487 kts | 115° |
| 2026-05-07 21:41 | 12.84151 | 83.19292 | 36801 ft | 487 kts | 115° |
| 2026-05-07 21:42 | 12.81074 | 83.25470 | 37089 ft | 486 kts | 115° |
| 2026-05-07 21:42 | 12.79546 | 83.28537 | 37283 ft | 487 kts | 115° |
| 2026-05-07 21:42 | 12.78001 | 83.31635 | 37475 ft | 487 kts | 115° |
| 2026-05-07 21:43 | 12.76450 | 83.34745 | 37666 ft | 485 kts | 115° |
| 2026-05-07 21:43 | 12.74897 | 83.37859 | 37859 ft | 484 kts | 115° |
| 2026-05-07 21:43 | 12.73379 | 83.40899 | 38048 ft | 484 kts | 115° |
| 2026-05-07 21:43 | 12.71838 | 83.43987 | 38241 ft | 484 kts | 115° |
| 2026-05-07 21:44 | 12.70294 | 83.47078 | 38434 ft | 484 kts | 115° |
| 2026-05-07 21:44 | 12.68753 | 83.50164 | 38625 ft | 484 kts | 115° |
| 2026-05-07 21:44 | 12.67201 | 83.53269 | 38817 ft | 483 kts | 115° |
| 2026-05-07 21:44 | 12.65685 | 83.56351 | 39008 ft | 483 kts | 114° |
| 2026-05-07 21:45 | 12.64206 | 83.59424 | 39196 ft | 482 kts | 114° |
| 2026-05-07 21:45 | 12.62722 | 83.62506 | 39385 ft | 481 kts | 114° |
| 2026-05-07 21:45 | 12.61233 | 83.65599 | 39574 ft | 480 kts | 114° |
| 2026-05-07 21:45 | 12.59767 | 83.68645 | 39770 ft | 479 kts | 114° |
| 2026-05-07 21:46 | 12.58297 | 83.71700 | 39964 ft | 478 kts | 114° |
| 2026-05-07 21:46 | 12.56840 | 83.74726 | 40156 ft | 476 kts | 114° |
| 2026-05-07 21:46 | 12.55373 | 83.77773 | 40350 ft | 475 kts | 114° |
| 2026-05-07 21:46 | 12.53911 | 83.80809 | 40543 ft | 473 kts | 114° |
| 2026-05-07 21:47 | 12.52476 | 83.83788 | 40732 ft | 471 kts | 114° |
| 2026-05-07 21:47 | 12.51008 | 83.86834 | 40796 ft | 473 kts | 114° |
| 2026-05-07 21:47 | 12.48062 | 83.92945 | 40807 ft | 477 kts | 114° |
| 2026-05-07 21:48 | 12.45412 | 83.98439 | 40807 ft | 482 kts | 114° |
| 2026-05-07 21:48 | 12.42850 | 84.03747 | 40805 ft | 484 kts | 114° |
| 2026-05-07 21:49 | 12.40093 | 84.09455 | 40802 ft | 484 kts | 114° |
| 2026-05-07 21:49 | 12.37100 | 84.15647 | 40802 ft | 483 kts | 114° |
| 2026-05-07 21:50 | 12.34124 | 84.21797 | 40803 ft | 484 kts | 114° |
| 2026-05-07 21:50 | 12.31142 | 84.27959 | 40802 ft | 484 kts | 114° |
| 2026-05-07 21:51 | 12.28127 | 84.34183 | 40800 ft | 484 kts | 114° |
| 2026-05-07 21:51 | 12.25154 | 84.40318 | 40801 ft | 484 kts | 114° |
| 2026-05-07 21:52 | 12.22160 | 84.46488 | 40800 ft | 484 kts | 114° |
| 2026-05-07 21:52 | 12.19148 | 84.52697 | 40801 ft | 483 kts | 114° |
| 2026-05-07 21:53 | 12.16140 | 84.58889 | 40801 ft | 484 kts | 114° |
| 2026-05-07 21:53 | 12.13125 | 84.65093 | 40800 ft | 484 kts | 114° |
| 2026-05-07 21:54 | 12.10203 | 84.71101 | 40805 ft | 484 kts | 114° |
| 2026-05-07 21:54 | 12.07201 | 84.77268 | 40805 ft | 484 kts | 114° |
| 2026-05-07 21:55 | 12.04185 | 84.83459 | 40805 ft | 484 kts | 114° |
| 2026-05-07 21:55 | 12.01178 | 84.89629 | 40804 ft | 484 kts | 114° |
| 2026-05-07 21:56 | 11.98187 | 84.95765 | 40804 ft | 483 kts | 114° |
| 2026-05-07 21:56 | 11.95171 | 85.01946 | 40803 ft | 484 kts | 114° |
| 2026-05-07 21:57 | 11.92143 | 85.08148 | 40803 ft | 485 kts | 115° |
| 2026-05-07 21:57 | 11.89128 | 85.14318 | 40802 ft | 486 kts | 115° |
| 2026-05-07 21:58 | 11.86109 | 85.20493 | 40801 ft | 487 kts | 115° |
| 2026-05-07 21:58 | 11.83071 | 85.26698 | 40801 ft | 487 kts | 115° |
| 2026-05-07 21:59 | 11.80031 | 85.32905 | 40801 ft | 487 kts | 115° |
| 2026-05-07 21:59 | 11.77011 | 85.39069 | 40801 ft | 487 kts | 115° |
| 2026-05-07 22:00 | 11.73981 | 85.45250 | 40801 ft | 487 kts | 115° |
| 2026-05-07 22:00 | 11.70932 | 85.51464 | 40800 ft | 487 kts | 115° |
| 2026-05-07 22:01 | 11.67897 | 85.57646 | 40800 ft | 487 kts | 115° |
| 2026-05-07 22:01 | 11.64873 | 85.63803 | 40800 ft | 487 kts | 115° |
| 2026-05-07 22:02 | 11.61820 | 85.70013 | 40804 ft | 487 kts | 115° |
| 2026-05-07 22:02 | 11.58787 | 85.76179 | 40804 ft | 487 kts | 115° |
| 2026-05-07 22:03 | 11.55738 | 85.82373 | 40803 ft | 487 kts | 115° |
| 2026-05-07 22:03 | 11.52715 | 85.88511 | 40803 ft | 487 kts | 115° |
| 2026-05-07 22:04 | 11.49670 | 85.94690 | 40803 ft | 487 kts | 115° |
| 2026-05-07 22:04 | 11.46629 | 86.00855 | 41099 ft | 483 kts | 115° |
| 2026-05-07 22:05 | 11.45125 | 86.03902 | 41287 ft | 481 kts | 115° |
| 2026-05-07 22:05 | 11.43641 | 86.06910 | 41474 ft | 479 kts | 115° |
| 2026-05-07 22:05 | 11.42123 | 86.09984 | 41665 ft | 476 kts | 115° |
| 2026-05-07 22:05 | 11.40650 | 86.12965 | 41851 ft | 474 kts | 115° |
| 2026-05-07 22:06 | 11.39178 | 86.15945 | 42037 ft | 471 kts | 115° |
| 2026-05-07 22:06 | 11.37708 | 86.18918 | 42223 ft | 468 kts | 115° |
| 2026-05-07 22:06 | 11.36241 | 86.21886 | 42409 ft | 465 kts | 115° |
| 2026-05-07 22:06 | 11.34790 | 86.24820 | 42594 ft | 462 kts | 115° |
| 2026-05-07 22:07 | 11.33350 | 86.27731 | 42769 ft | 459 kts | 115° |
| 2026-05-07 22:07 | 11.31922 | 86.30617 | 42791 ft | 459 kts | 115° |
| 2026-05-07 22:07 | 11.29054 | 86.36413 | 42802 ft | 461 kts | 115° |
| 2026-05-07 22:08 | 11.26165 | 86.42245 | 42803 ft | 462 kts | 115° |
| 2026-05-07 22:08 | 11.23256 | 86.48116 | 42803 ft | 464 kts | 115° |
| 2026-05-07 22:09 | 11.20346 | 86.53985 | 42803 ft | 466 kts | 115° |
| 2026-05-07 22:09 | 11.17428 | 86.59866 | 42803 ft | 467 kts | 115° |
| 2026-05-07 22:10 | 11.14494 | 86.65777 | 42803 ft | 469 kts | 115° |
| 2026-05-07 22:10 | 11.11543 | 86.71717 | 42806 ft | 471 kts | 115° |
| 2026-05-07 22:11 | 11.08582 | 86.77673 | 42806 ft | 473 kts | 115° |
| 2026-05-07 22:11 | 11.05608 | 86.83653 | 42806 ft | 476 kts | 115° |
| 2026-05-07 22:12 | 11.02618 | 86.89663 | 42806 ft | 478 kts | 115° |
| 2026-05-07 22:12 | 10.99620 | 86.95691 | 42806 ft | 480 kts | 115° |
| 2026-05-07 22:13 | 10.96601 | 87.01750 | 42804 ft | 481 kts | 116° |
| 2026-05-07 22:13 | 10.93580 | 87.07810 | 42803 ft | 483 kts | 116° |
| 2026-05-07 22:14 | 10.90544 | 87.13895 | 42803 ft | 485 kts | 116° |
| 2026-05-07 22:14 | 10.87478 | 87.20036 | 42803 ft | 486 kts | 116° |
| 2026-05-07 22:15 | 10.84412 | 87.26173 | 42803 ft | 488 kts | 116° |
| 2026-05-07 22:15 | 10.81350 | 87.32298 | 42803 ft | 489 kts | 116° |
| 2026-05-07 22:16 | 10.78281 | 87.38434 | 42800 ft | 487 kts | 116° |
| 2026-05-07 22:16 | 10.75218 | 87.44556 | 42802 ft | 488 kts | 116° |
| 2026-05-07 22:17 | 10.72131 | 87.50722 | 42802 ft | 488 kts | 116° |
| 2026-05-07 22:17 | 10.69057 | 87.56858 | 42801 ft | 488 kts | 116° |
| 2026-05-07 22:18 | 10.64438 | 87.66072 | 42802 ft | 488 kts | 116° |
| 2026-05-07 22:19 | 10.61366 | 87.72195 | 42804 ft | 488 kts | 116° |
| 2026-05-07 22:19 | 10.58285 | 87.78335 | 42803 ft | 488 kts | 116° |
| 2026-05-07 22:20 | 10.55205 | 87.84467 | 42803 ft | 488 kts | 116° |
| 2026-05-07 22:20 | 10.52113 | 87.90620 | 42803 ft | 488 kts | 116° |
| 2026-05-07 22:21 | 10.49021 | 87.96767 | 42803 ft | 488 kts | 116° |
| 2026-05-07 22:21 | 10.45927 | 88.02916 | 42803 ft | 488 kts | 116° |
| 2026-05-07 22:22 | 10.42844 | 88.09040 | 42802 ft | 488 kts | 116° |
| 2026-05-07 22:22 | 10.39764 | 88.15154 | 42802 ft | 488 kts | 116° |
| 2026-05-07 22:23 | 10.36664 | 88.21305 | 42817 ft | 488 kts | 116° |
| 2026-05-07 22:23 | 10.33587 | 88.27408 | 42852 ft | 488 kts | 116° |
| 2026-05-07 22:24 | 10.30491 | 88.33542 | 42907 ft | 488 kts | 116° |
| 2026-05-07 22:24 | 10.27410 | 88.39646 | 42958 ft | 488 kts | 116° |
| 2026-05-07 22:25 | 10.24303 | 88.45796 | 42990 ft | 489 kts | 116° |
| 2026-05-07 22:25 | 10.21221 | 88.51897 | 42994 ft | 487 kts | 116° |
| 2026-05-07 22:26 | 10.18323 | 88.58128 | 42998 ft | 487 kts | 114° |
| 2026-05-07 22:26 | 10.15471 | 88.64333 | 42998 ft | 489 kts | 114° |
| 2026-05-07 22:27 | 10.12609 | 88.70571 | 42997 ft | 488 kts | 114° |
| 2026-05-07 22:27 | 10.09764 | 88.76770 | 42999 ft | 487 kts | 114° |
| 2026-05-07 22:28 | 10.06898 | 88.83016 | 42999 ft | 488 kts | 114° |
| 2026-05-07 22:28 | 10.04030 | 88.89260 | 42999 ft | 489 kts | 114° |
| 2026-05-07 22:29 | 10.01164 | 88.95499 | 42999 ft | 489 kts | 114° |
| 2026-05-07 22:29 | 9.98309 | 89.01708 | 42999 ft | 490 kts | 114° |
| 2026-05-07 22:30 | 9.95428 | 89.07973 | 42999 ft | 490 kts | 114° |
| 2026-05-07 22:30 | 9.92551 | 89.14226 | 42998 ft | 490 kts | 114° |
| 2026-05-07 22:31 | 9.89678 | 89.20465 | 42998 ft | 490 kts | 114° |
| 2026-05-07 22:31 | 9.86800 | 89.26711 | 42998 ft | 490 kts | 114° |
| 2026-05-07 22:32 | 9.83910 | 89.32979 | 42998 ft | 490 kts | 114° |
| 2026-05-07 22:32 | 9.81039 | 89.39202 | 42997 ft | 490 kts | 114° |
| 2026-05-07 22:33 | 9.78164 | 89.45432 | 42997 ft | 490 kts | 114° |
| 2026-05-07 22:33 | 9.75277 | 89.51684 | 42997 ft | 490 kts | 114° |
| 2026-05-07 22:34 | 9.72392 | 89.57928 | 42997 ft | 490 kts | 114° |
| 2026-05-07 22:34 | 9.69510 | 89.64159 | 42997 ft | 490 kts | 114° |
| 2026-05-07 22:35 | 9.66614 | 89.70422 | 42999 ft | 490 kts | 114° |
| 2026-05-07 22:35 | 9.63737 | 89.76636 | 42999 ft | 490 kts | 114° |
| 2026-05-07 22:36 | 9.60840 | 89.82892 | 42999 ft | 490 kts | 114° |
| 2026-05-07 22:36 | 9.57959 | 89.89111 | 42999 ft | 490 kts | 114° |
| 2026-05-07 22:37 | 9.55059 | 89.95365 | 42999 ft | 490 kts | 114° |
| 2026-05-07 22:37 | 9.52171 | 90.01592 | 42999 ft | 490 kts | 114° |
| 2026-05-07 22:38 | 9.49293 | 90.07792 | 42998 ft | 490 kts | 114° |
| 2026-05-07 22:38 | 9.46386 | 90.14052 | 42998 ft | 490 kts | 114° |
| 2026-05-07 22:39 | 9.43490 | 90.20283 | 42998 ft | 490 kts | 114° |
| 2026-05-07 22:39 | 9.40610 | 90.26478 | 42998 ft | 490 kts | 114° |
| 2026-05-07 22:40 | 9.37695 | 90.32745 | 42998 ft | 490 kts | 114° |
| 2026-05-07 22:40 | 9.34812 | 90.38939 | 42998 ft | 490 kts | 114° |
| 2026-05-07 22:41 | 9.31896 | 90.45203 | 42997 ft | 490 kts | 114° |
| 2026-05-07 22:41 | 9.28990 | 90.51439 | 42997 ft | 490 kts | 114° |
| 2026-05-07 22:42 | 9.26087 | 90.57667 | 42997 ft | 490 kts | 114° |
| 2026-05-07 22:42 | 9.23179 | 90.63901 | 42997 ft | 490 kts | 114° |
| 2026-05-07 22:43 | 9.20275 | 90.70125 | 42999 ft | 490 kts | 114° |
| 2026-05-07 22:43 | 9.17376 | 90.76333 | 42999 ft | 490 kts | 114° |
| 2026-05-07 22:44 | 9.14470 | 90.82554 | 42999 ft | 490 kts | 114° |
| 2026-05-07 22:44 | 9.11547 | 90.88806 | 42999 ft | 490 kts | 114° |
| 2026-05-07 22:45 | 9.08634 | 90.95035 | 42999 ft | 492 kts | 114° |
| 2026-05-07 22:45 | 9.05710 | 91.01286 | 43000 ft | 493 kts | 114° |
| 2026-05-07 22:46 | 9.02772 | 91.07563 | 42998 ft | 493 kts | 114° |
| 2026-05-07 22:46 | 8.99809 | 91.13888 | 42999 ft | 492 kts | 114° |
| 2026-05-07 22:47 | 8.96901 | 91.20092 | 42998 ft | 491 kts | 114° |
| 2026-05-07 22:47 | 8.93971 | 91.26339 | 42998 ft | 491 kts | 114° |
| 2026-05-07 22:48 | 8.91063 | 91.32540 | 42998 ft | 491 kts | 114° |
| 2026-05-07 22:48 | 8.88125 | 91.38799 | 42997 ft | 491 kts | 114° |
| 2026-05-07 22:49 | 8.85191 | 91.45046 | 42998 ft | 491 kts | 114° |
| 2026-05-07 22:49 | 8.82279 | 91.51244 | 42997 ft | 491 kts | 114° |
| 2026-05-07 22:50 | 8.79351 | 91.57471 | 42997 ft | 491 kts | 114° |
| 2026-05-07 22:50 | 8.76433 | 91.63678 | 42997 ft | 491 kts | 114° |
| 2026-05-07 22:51 | 8.73494 | 91.69923 | 42999 ft | 491 kts | 114° |
| 2026-05-07 22:51 | 8.70560 | 91.76155 | 42999 ft | 491 kts | 114° |
| 2026-05-07 22:52 | 8.67625 | 91.82388 | 42999 ft | 491 kts | 114° |
| 2026-05-07 22:52 | 8.64697 | 91.88600 | 43000 ft | 491 kts | 114° |
| 2026-05-07 22:53 | 8.61737 | 91.94878 | 42998 ft | 491 kts | 114° |
| 2026-05-07 22:53 | 8.58840 | 92.01140 | 43000 ft | 491 kts | 113° |
| 2026-05-07 22:54 | 8.56021 | 92.07484 | 42998 ft | 491 kts | 113° |
| 2026-05-07 22:54 | 8.54623 | 92.10636 | 42844 ft | 493 kts | 113° |
| 2026-05-07 22:54 | 8.53239 | 92.13757 | 42838 ft | 490 kts | 113° |
| 2026-05-07 22:55 | 8.50463 | 92.20018 | 42830 ft | 490 kts | 113° |
| 2026-05-07 22:55 | 8.47667 | 92.26322 | 42829 ft | 491 kts | 113° |
| 2026-05-07 22:56 | 8.44884 | 92.32597 | 42829 ft | 491 kts | 113° |
| 2026-05-07 22:56 | 8.42685 | 92.37553 | 42827 ft | 491 kts | 114° |
| 2026-05-07 22:56 | 8.41834 | 92.39483 | 42933 ft | 489 kts | 113° |
| 2026-05-07 22:57 | 8.40439 | 92.42609 | 42815 ft | 491 kts | 113° |
| 2026-05-07 22:57 | 8.37649 | 92.48891 | 42829 ft | 491 kts | 113° |
| 2026-05-07 22:58 | 8.34859 | 92.55169 | 42829 ft | 491 kts | 113° |
| 2026-05-07 22:58 | 8.32064 | 92.61455 | 42828 ft | 491 kts | 113° |
| 2026-05-07 22:59 | 8.29278 | 92.67719 | 42831 ft | 491 kts | 113° |
| 2026-05-07 22:59 | 8.26473 | 92.74020 | 42830 ft | 491 kts | 113° |
| 2026-05-07 23:00 | 8.23680 | 92.80294 | 42831 ft | 491 kts | 113° |
| 2026-05-07 23:00 | 8.21107 | 92.86068 | 42830 ft | 491 kts | 113° |
| 2026-05-07 23:01 | 8.18318 | 92.92323 | 42830 ft | 491 kts | 113° |
| 2026-05-07 23:01 | 8.16256 | 92.96942 | 42831 ft | 490 kts | 113° |
| 2026-05-07 23:02 | 8.13451 | 93.03230 | 42830 ft | 491 kts | 112° |
| 2026-05-07 23:02 | 8.10641 | 93.09524 | 42830 ft | 492 kts | 112° |
| 2026-05-07 23:03 | 8.08144 | 93.15118 | 42831 ft | 492 kts | 112° |
| 2026-05-07 23:03 | 8.05293 | 93.21506 | 42830 ft | 492 kts | 112° |
| 2026-05-07 23:04 | 8.02742 | 93.27216 | 42831 ft | 492 kts | 112° |
| 2026-05-07 23:04 | 8.00192 | 93.32922 | 42831 ft | 492 kts | 112° |
| 2026-05-07 23:05 | 7.97371 | 93.39228 | 42830 ft | 492 kts | 112° |
| 2026-05-07 23:05 | 7.94539 | 93.45557 | 42830 ft | 492 kts | 112° |
| 2026-05-07 23:06 | 7.91724 | 93.51868 | 42829 ft | 492 kts | 112° |
| 2026-05-07 23:06 | 7.88929 | 93.58158 | 42826 ft | 492 kts | 112° |
| 2026-05-07 23:07 | 7.86147 | 93.64422 | 42827 ft | 492 kts | 112° |
| 2026-05-07 23:07 | 7.83343 | 93.70730 | 42829 ft | 493 kts | 112° |
| 2026-05-07 23:08 | 7.80543 | 93.77029 | 42829 ft | 492 kts | 112° |
| 2026-05-07 23:08 | 7.77758 | 93.83289 | 42829 ft | 492 kts | 112° |
| 2026-05-07 23:09 | 7.75001 | 93.89484 | 42830 ft | 492 kts | 112° |
| 2026-05-07 23:09 | 7.72217 | 93.95735 | 42829 ft | 492 kts | 112° |
| 2026-05-07 23:10 | 7.69393 | 94.02079 | 42829 ft | 492 kts | 112° |
| 2026-05-07 23:10 | 7.67171 | 94.07063 | 42829 ft | 492 kts | 112° |
| 2026-05-07 23:11 | 7.64371 | 94.13344 | 42829 ft | 492 kts | 112° |
| 2026-05-07 23:11 | 7.61559 | 94.19648 | 42829 ft | 492 kts | 112° |
| 2026-05-07 23:12 | 7.58739 | 94.25967 | 43001 ft | 489 kts | 112° |
| 2026-05-07 23:12 | 7.55939 | 94.32239 | 43000 ft | 491 kts | 112° |
| 2026-05-07 23:13 | 7.53139 | 94.38510 | 42998 ft | 492 kts | 112° |
| 2026-05-07 23:13 | 7.50211 | 94.44768 | 42998 ft | 493 kts | 114° |
| 2026-05-07 23:14 | 7.47194 | 94.51003 | 42997 ft | 493 kts | 114° |
| 2026-05-07 23:14 | 7.44184 | 94.57210 | 42997 ft | 493 kts | 114° |
| 2026-05-07 23:15 | 7.41160 | 94.63437 | 42997 ft | 493 kts | 114° |
| 2026-05-07 23:15 | 7.38158 | 94.69617 | 43000 ft | 493 kts | 114° |
| 2026-05-07 23:16 | 7.35138 | 94.75829 | 43000 ft | 493 kts | 114° |
| 2026-05-07 23:16 | 7.32128 | 94.82019 | 42998 ft | 493 kts | 114° |
| 2026-05-07 23:17 | 7.29093 | 94.88264 | 42998 ft | 496 kts | 114° |
| 2026-05-07 23:17 | 7.26043 | 94.94539 | 43000 ft | 499 kts | 115° |
| 2026-05-07 23:18 | 7.22988 | 95.00816 | 43001 ft | 501 kts | 115° |
| 2026-05-07 23:18 | 7.19931 | 95.07087 | 42998 ft | 500 kts | 116° |
| 2026-05-07 23:19 | 7.16858 | 95.13384 | 42998 ft | 500 kts | 116° |
| 2026-05-07 23:19 | 7.13802 | 95.19649 | 42999 ft | 500 kts | 116° |
| 2026-05-07 23:20 | 7.10744 | 95.25917 | 42999 ft | 500 kts | 115° |
| 2026-05-07 23:20 | 7.07672 | 95.32214 | 42999 ft | 500 kts | 115° |
| 2026-05-07 23:21 | 7.04577 | 95.38554 | 43000 ft | 500 kts | 115° |
| 2026-05-07 23:21 | 7.01478 | 95.44896 | 43000 ft | 501 kts | 115° |
| 2026-05-07 23:22 | 6.98373 | 95.51247 | 42999 ft | 500 kts | 115° |
| 2026-05-07 23:22 | 6.95310 | 95.57515 | 42999 ft | 498 kts | 115° |
| 2026-05-07 23:23 | 6.92234 | 95.63806 | 42997 ft | 494 kts | 115° |
| 2026-05-07 23:23 | 6.89205 | 95.70005 | 42998 ft | 490 kts | 115° |
| 2026-05-07 23:24 | 6.86222 | 95.76105 | 42999 ft | 487 kts | 115° |
| 2026-05-07 23:24 | 6.83210 | 95.82258 | 43000 ft | 488 kts | 115° |
| 2026-05-07 23:25 | 6.79919 | 95.88261 | 42998 ft | 489 kts | 121° |
| 2026-05-07 23:25 | 6.76298 | 95.94050 | 42996 ft | 489 kts | 121° |
| 2026-05-07 23:26 | 6.72670 | 95.99850 | 43002 ft | 489 kts | 121° |
| 2026-05-07 23:26 | 6.69070 | 96.05608 | 42997 ft | 489 kts | 121° |
| 2026-05-07 23:27 | 6.63608 | 96.14339 | 42998 ft | 489 kts | 121° |
| 2026-05-07 23:27 | 6.60009 | 96.20091 | 42998 ft | 489 kts | 121° |
| 2026-05-07 23:28 | 6.56378 | 96.25892 | 42998 ft | 490 kts | 121° |
| 2026-05-07 23:28 | 6.52762 | 96.31667 | 42999 ft | 489 kts | 121° |
| 2026-05-07 23:29 | 6.49153 | 96.37429 | 43000 ft | 489 kts | 121° |
| 2026-05-07 23:29 | 6.45531 | 96.43211 | 43002 ft | 489 kts | 121° |
| 2026-05-07 23:30 | 6.41920 | 96.48970 | 42996 ft | 490 kts | 121° |
| 2026-05-07 23:30 | 6.38290 | 96.54761 | 42997 ft | 489 kts | 121° |
| 2026-05-07 23:31 | 6.34661 | 96.60548 | 42996 ft | 489 kts | 121° |
| 2026-05-07 23:31 | 6.31027 | 96.66340 | 43002 ft | 489 kts | 121° |
| 2026-05-07 23:32 | 6.27399 | 96.72120 | 43002 ft | 489 kts | 121° |
| 2026-05-07 23:32 | 6.23757 | 96.77926 | 43002 ft | 489 kts | 121° |
| 2026-05-07 23:33 | 6.20135 | 96.83693 | 43000 ft | 489 kts | 121° |
| 2026-05-07 23:33 | 6.16508 | 96.89465 | 42998 ft | 489 kts | 121° |
| 2026-05-07 23:34 | 6.12865 | 96.95264 | 42999 ft | 489 kts | 121° |
| 2026-05-07 23:34 | 6.09220 | 97.01066 | 42998 ft | 489 kts | 121° |
| 2026-05-07 23:35 | 6.05584 | 97.06852 | 43001 ft | 488 kts | 121° |
| 2026-05-07 23:35 | 6.01961 | 97.12614 | 42998 ft | 488 kts | 121° |
| 2026-05-07 23:36 | 5.98373 | 97.18317 | 42997 ft | 487 kts | 121° |
| 2026-05-07 23:36 | 5.94758 | 97.24061 | 42999 ft | 487 kts | 121° |
| 2026-05-07 23:37 | 5.91149 | 97.29792 | 42996 ft | 486 kts | 121° |
| 2026-05-07 23:37 | 5.87531 | 97.35536 | 42994 ft | 486 kts | 121° |
| 2026-05-07 23:38 | 5.83911 | 97.41284 | 42997 ft | 487 kts | 121° |
| 2026-05-07 23:38 | 5.80316 | 97.46989 | 42993 ft | 487 kts | 121° |
| 2026-05-07 23:39 | 5.76703 | 97.52723 | 42991 ft | 486 kts | 121° |
| 2026-05-07 23:39 | 5.73094 | 97.58448 | 42999 ft | 487 kts | 121° |
| 2026-05-07 23:40 | 5.69470 | 97.64196 | 42993 ft | 487 kts | 121° |
| 2026-05-07 23:40 | 5.65871 | 97.69902 | 42996 ft | 487 kts | 121° |
| 2026-05-07 23:41 | 5.62259 | 97.75626 | 42959 ft | 486 kts | 121° |
| 2026-05-07 23:41 | 5.58642 | 97.81359 | 42918 ft | 487 kts | 121° |
| 2026-05-07 23:42 | 5.55017 | 97.87103 | 42836 ft | 487 kts | 121° |
| 2026-05-07 23:42 | 5.51380 | 97.92861 | 42832 ft | 487 kts | 121° |
| 2026-05-07 23:43 | 5.47748 | 97.98613 | 42830 ft | 487 kts | 121° |
| 2026-05-07 23:43 | 5.44108 | 98.04374 | 42829 ft | 486 kts | 121° |
| 2026-05-07 23:44 | 5.40477 | 98.10119 | 42836 ft | 487 kts | 121° |
| 2026-05-07 23:44 | 5.36862 | 98.15837 | 42837 ft | 486 kts | 121° |
| 2026-05-07 23:45 | 5.33231 | 98.21581 | 42842 ft | 487 kts | 121° |
| 2026-05-07 23:45 | 5.29633 | 98.27271 | 42839 ft | 487 kts | 121° |
| 2026-05-07 23:46 | 5.25993 | 98.33025 | 42840 ft | 487 kts | 121° |
| 2026-05-07 23:46 | 5.22373 | 98.38745 | 42838 ft | 487 kts | 121° |
| 2026-05-07 23:47 | 5.18757 | 98.44458 | 42844 ft | 487 kts | 121° |
| 2026-05-07 23:47 | 5.15116 | 98.50208 | 42849 ft | 487 kts | 121° |
| 2026-05-07 23:48 | 5.11507 | 98.55908 | 42857 ft | 486 kts | 121° |
| 2026-05-07 23:48 | 5.07893 | 98.61623 | 42858 ft | 487 kts | 122° |
| 2026-05-07 23:49 | 5.04264 | 98.67354 | 42860 ft | 489 kts | 122° |
| 2026-05-07 23:49 | 5.00625 | 98.73093 | 42856 ft | 491 kts | 123° |
| 2026-05-07 23:50 | 4.96936 | 98.78908 | 42858 ft | 494 kts | 123° |
| 2026-05-07 23:50 | 4.93251 | 98.84714 | 42857 ft | 495 kts | 123° |
| 2026-05-07 23:51 | 4.89564 | 98.90527 | 42855 ft | 495 kts | 122° |
| 2026-05-07 23:51 | 4.85885 | 98.96322 | 42857 ft | 492 kts | 122° |
| 2026-05-07 23:52 | 4.82227 | 99.02084 | 42857 ft | 489 kts | 122° |
| 2026-05-07 23:52 | 4.78577 | 99.07831 | 42857 ft | 489 kts | 122° |
| 2026-05-07 23:53 | 4.74947 | 99.13547 | 42857 ft | 489 kts | 121° |
| 2026-05-07 23:53 | 4.71286 | 99.19320 | 42856 ft | 489 kts | 121° |
| 2026-05-07 23:54 | 4.67659 | 99.25034 | 42856 ft | 489 kts | 121° |
| 2026-05-07 23:54 | 4.64011 | 99.30778 | 42856 ft | 489 kts | 121° |
| 2026-05-07 23:55 | 4.61116 | 99.35349 | 43002 ft | 488 kts | 122° |
| 2026-05-07 23:55 | 4.59272 | 99.38232 | 42849 ft | 489 kts | 122° |
| 2026-05-07 23:55 | 4.57459 | 99.41085 | 42865 ft | 488 kts | 121° |
| 2026-05-07 23:56 | 4.53811 | 99.46825 | 42857 ft | 489 kts | 121° |
| 2026-05-07 23:56 | 4.50340 | 99.52673 | 42863 ft | 489 kts | 115° |
| 2026-05-07 23:57 | 4.47486 | 99.58858 | 42856 ft | 489 kts | 113° |
| 2026-05-07 23:57 | 4.44739 | 99.65104 | 42855 ft | 489 kts | 113° |
| 2026-05-07 23:58 | 4.42036 | 99.71361 | 42858 ft | 489 kts | 112° |
| 2026-05-07 23:58 | 4.39341 | 99.77637 | 42857 ft | 489 kts | 112° |
| 2026-05-07 23:59 | 4.36668 | 99.83875 | 42857 ft | 489 kts | 112° |
| 2026-05-07 23:59 | 4.34006 | 99.90090 | 42857 ft | 489 kts | 112° |
| 2026-05-08 00:00 | 4.31316 | 99.96374 | 42857 ft | 489 kts | 112° |
| 2026-05-08 00:00 | 4.28655 | 100.02585 | 42857 ft | 489 kts | 112° |
| 2026-05-08 00:01 | 4.26010 | 100.08758 | 42827 ft | 465 kts | 112° |
| 2026-05-08 00:01 | 4.24747 | 100.11703 | 42826 ft | 447 kts | 112° |
| 2026-05-08 00:01 | 4.23540 | 100.14518 | 42834 ft | 435 kts | 112° |
| 2026-05-08 00:02 | 4.21149 | 100.20094 | 42857 ft | 436 kts | 112° |
| 2026-05-08 00:02 | 4.18759 | 100.25670 | 42858 ft | 438 kts | 112° |
| 2026-05-08 00:03 | 4.16359 | 100.31269 | 42849 ft | 434 kts | 112° |
| 2026-05-08 00:03 | 4.15176 | 100.34025 | 42862 ft | 416 kts | 112° |
| 2026-05-08 00:03 | 4.14064 | 100.36611 | 42840 ft | 405 kts | 112° |
| 2026-05-08 00:04 | 4.11838 | 100.41785 | 42530 ft | 413 kts | 112° |
| 2026-05-08 00:04 | 4.10693 | 100.44452 | 41835 ft | 423 kts | 112° |
| 2026-05-08 00:04 | 4.09536 | 100.47154 | 41296 ft | 420 kts | 112° |
| 2026-05-08 00:05 | 4.08395 | 100.49818 | 40735 ft | 417 kts | 112° |
| 2026-05-08 00:05 | 4.07249 | 100.52495 | 40178 ft | 414 kts | 112° |
| 2026-05-08 00:05 | 4.06118 | 100.55132 | 39633 ft | 411 kts | 112° |
| 2026-05-08 00:05 | 4.04992 | 100.57759 | 39097 ft | 410 kts | 112° |
| 2026-05-08 00:06 | 4.03876 | 100.60360 | 38575 ft | 410 kts | 112° |
| 2026-05-08 00:06 | 4.02748 | 100.62991 | 38052 ft | 412 kts | 112° |
| 2026-05-08 00:06 | 4.01619 | 100.65622 | 37530 ft | 412 kts | 112° |
| 2026-05-08 00:06 | 4.00484 | 100.68265 | 37011 ft | 412 kts | 112° |
| 2026-05-08 00:07 | 3.99353 | 100.70898 | 36495 ft | 412 kts | 112° |
| 2026-05-08 00:07 | 3.98221 | 100.73535 | 35976 ft | 410 kts | 112° |
| 2026-05-08 00:07 | 3.97110 | 100.76122 | 35463 ft | 407 kts | 112° |
| 2026-05-08 00:07 | 3.95991 | 100.78728 | 34949 ft | 403 kts | 112° |
| 2026-05-08 00:08 | 3.94897 | 100.81275 | 34450 ft | 399 kts | 112° |
| 2026-05-08 00:08 | 3.93817 | 100.83789 | 33962 ft | 394 kts | 112° |
| 2026-05-08 00:08 | 3.92733 | 100.86313 | 33476 ft | 390 kts | 112° |
| 2026-05-08 00:08 | 3.91670 | 100.88784 | 33004 ft | 386 kts | 112° |
| 2026-05-08 00:09 | 3.90617 | 100.91253 | 32536 ft | 382 kts | 113° |
| 2026-05-08 00:09 | 3.89577 | 100.93677 | 32079 ft | 379 kts | 114° |
| 2026-05-08 00:09 | 3.88533 | 100.96108 | 31629 ft | 376 kts | 114° |
| 2026-05-08 00:09 | 3.87502 | 100.98510 | 31186 ft | 374 kts | 114° |
| 2026-05-08 00:10 | 3.86481 | 101.00885 | 30751 ft | 372 kts | 114° |
| 2026-05-08 00:10 | 3.85466 | 101.03246 | 30322 ft | 370 kts | 115° |
| 2026-05-08 00:10 | 3.84449 | 101.05612 | 29895 ft | 368 kts | 115° |
| 2026-05-08 00:10 | 3.83441 | 101.07951 | 29474 ft | 366 kts | 115° |
| 2026-05-08 00:11 | 3.82436 | 101.10286 | 29056 ft | 364 kts | 115° |
| 2026-05-08 00:11 | 3.81441 | 101.12598 | 28646 ft | 363 kts | 115° |
| 2026-05-08 00:11 | 3.80445 | 101.14911 | 28238 ft | 361 kts | 115° |
| 2026-05-08 00:11 | 3.79455 | 101.17209 | 27836 ft | 359 kts | 116° |
| 2026-05-08 00:12 | 3.78335 | 101.19430 | 27474 ft | 356 kts | 123° |
| 2026-05-08 00:12 | 3.76976 | 101.21439 | 27129 ft | 353 kts | 130° |
| 2026-05-08 00:12 | 3.75345 | 101.23289 | 26778 ft | 350 kts | 137° |
| 2026-05-08 00:12 | 3.73536 | 101.24885 | 26438 ft | 347 kts | 143° |
| 2026-05-08 00:13 | 3.71638 | 101.26366 | 26102 ft | 346 kts | 144° |
| 2026-05-08 00:13 | 3.69715 | 101.27825 | 25762 ft | 344 kts | 145° |
| 2026-05-08 00:13 | 3.67814 | 101.29236 | 25430 ft | 343 kts | 146° |
| 2026-05-08 00:13 | 3.65883 | 101.30647 | 25094 ft | 341 kts | 146° |
| 2026-05-08 00:14 | 3.63976 | 101.32024 | 24764 ft | 340 kts | 146° |
| 2026-05-08 00:14 | 3.62047 | 101.33407 | 24432 ft | 339 kts | 147° |
| 2026-05-08 00:14 | 3.60155 | 101.34755 | 24106 ft | 337 kts | 147° |
| 2026-05-08 00:14 | 3.58230 | 101.36121 | 23776 ft | 336 kts | 147° |
| 2026-05-08 00:15 | 3.56331 | 101.37465 | 23450 ft | 335 kts | 147° |
| 2026-05-08 00:15 | 3.54428 | 101.38808 | 23125 ft | 334 kts | 147° |
| 2026-05-08 00:15 | 3.52543 | 101.40138 | 22803 ft | 333 kts | 147° |
| 2026-05-08 00:15 | 3.50655 | 101.41467 | 22480 ft | 332 kts | 147° |
| 2026-05-08 00:16 | 3.48757 | 101.42802 | 22157 ft | 331 kts | 148° |
| 2026-05-08 00:16 | 3.46890 | 101.44115 | 21838 ft | 330 kts | 148° |
| 2026-05-08 00:16 | 3.45019 | 101.45430 | 21520 ft | 329 kts | 148° |
| 2026-05-08 00:16 | 3.43129 | 101.46758 | 21198 ft | 328 kts | 148° |
| 2026-05-08 00:17 | 3.41259 | 101.48071 | 20880 ft | 327 kts | 148° |
| 2026-05-08 00:17 | 3.39371 | 101.49398 | 20559 ft | 327 kts | 148° |
| 2026-05-08 00:17 | 3.37503 | 101.50710 | 20242 ft | 326 kts | 148° |
| 2026-05-08 00:17 | 3.35704 | 101.51972 | 19937 ft | 325 kts | 148° |
| 2026-05-08 00:18 | 3.33813 | 101.53299 | 19617 ft | 324 kts | 148° |
| 2026-05-08 00:18 | 3.31971 | 101.54592 | 19304 ft | 323 kts | 148° |
| 2026-05-08 00:18 | 3.30137 | 101.55879 | 18994 ft | 323 kts | 148° |
| 2026-05-08 00:18 | 3.28295 | 101.57172 | 18682 ft | 322 kts | 148° |
| 2026-05-08 00:19 | 3.26454 | 101.58464 | 18371 ft | 321 kts | 148° |
| 2026-05-08 00:19 | 3.24633 | 101.59742 | 18076 ft | 321 kts | 148° |
| 2026-05-08 00:19 | 3.22806 | 101.61024 | 17779 ft | 320 kts | 148° |
| 2026-05-08 00:19 | 3.20996 | 101.62290 | 17484 ft | 319 kts | 148° |
| 2026-05-08 00:20 | 3.19169 | 101.63563 | 17186 ft | 319 kts | 148° |
| 2026-05-08 00:20 | 3.17368 | 101.64822 | 16892 ft | 318 kts | 148° |
| 2026-05-08 00:20 | 3.15554 | 101.66093 | 16588 ft | 317 kts | 148° |
| 2026-05-08 00:20 | 3.13728 | 101.67372 | 16280 ft | 317 kts | 148° |
| 2026-05-08 00:21 | 3.11933 | 101.68630 | 15978 ft | 316 kts | 148° |
| 2026-05-08 00:21 | 3.10146 | 101.69884 | 15677 ft | 315 kts | 148° |
| 2026-05-08 00:21 | 3.08350 | 101.71143 | 15376 ft | 315 kts | 148° |
| 2026-05-08 00:21 | 3.06559 | 101.72400 | 15075 ft | 314 kts | 148° |
| 2026-05-08 00:22 | 3.04773 | 101.73652 | 14776 ft | 314 kts | 148° |
| 2026-05-08 00:22 | 3.02983 | 101.74907 | 14477 ft | 313 kts | 148° |
| 2026-05-08 00:22 | 3.01218 | 101.76144 | 14182 ft | 311 kts | 147° |
| 2026-05-08 00:22 | 2.99453 | 101.77381 | 13887 ft | 309 kts | 147° |
| 2026-05-08 00:23 | 2.97673 | 101.78630 | 13591 ft | 308 kts | 147° |
| 2026-05-08 00:23 | 2.95920 | 101.79858 | 13300 ft | 306 kts | 147° |
| 2026-05-08 00:23 | 2.94205 | 101.81062 | 13016 ft | 305 kts | 147° |
| 2026-05-08 00:23 | 2.92464 | 101.82283 | 12728 ft | 303 kts | 147° |
| 2026-05-08 00:24 | 2.90748 | 101.83485 | 12444 ft | 301 kts | 147° |
| 2026-05-08 00:24 | 2.89032 | 101.84689 | 12160 ft | 300 kts | 146° |
| 2026-05-08 00:24 | 2.87315 | 101.85835 | 11847 ft | 298 kts | 152° |
| 2026-05-08 00:24 | 2.85465 | 101.86735 | 11521 ft | 294 kts | 160° |
| 2026-05-08 00:25 | 2.83559 | 101.87454 | 11202 ft | 291 kts | 162° |
| 2026-05-08 00:25 | 2.81665 | 101.88103 | 10887 ft | 288 kts | 163° |
| 2026-05-08 00:25 | 2.79757 | 101.88721 | 10573 ft | 286 kts | 164° |
| 2026-05-08 00:25 | 2.77868 | 101.89317 | 10262 ft | 285 kts | 164° |
| 2026-05-08 00:26 | 2.75976 | 101.89904 | 9953 ft | 283 kts | 164° |
| 2026-05-08 00:26 | 2.74125 | 101.90475 | 9624 ft | 278 kts | 164° |
| 2026-05-08 00:26 | 2.72271 | 101.91043 | 9350 ft | 280 kts | 164° |
| 2026-05-08 00:26 | 2.70394 | 101.91618 | 9044 ft | 278 kts | 164° |
| 2026-05-08 00:27 | 2.68549 | 101.92183 | 8737 ft | 276 kts | 164° |
| 2026-05-08 00:27 | 2.66719 | 101.92743 | 8434 ft | 274 kts | 164° |
| 2026-05-08 00:27 | 2.64884 | 101.93304 | 8131 ft | 274 kts | 164° |
| 2026-05-08 00:27 | 2.63089 | 101.93853 | 7835 ft | 272 kts | 164° |
| 2026-05-08 00:28 | 2.61365 | 101.94379 | 7549 ft | 269 kts | 164° |
| 2026-05-08 00:28 | 2.59868 | 101.94836 | 7300 ft | 268 kts | 164° |
| 2026-05-08 00:28 | 2.58085 | 101.95381 | 7003 ft | 268 kts | 164° |
| 2026-05-08 00:28 | 2.56298 | 101.95927 | 6705 ft | 266 kts | 164° |
| 2026-05-08 00:29 | 2.54517 | 101.96270 | 6367 ft | 259 kts | 186° |
| 2026-05-08 00:29 | 2.52937 | 101.95650 | 6047 ft | 239 kts | 219° |
| 2026-05-08 00:29 | 2.51790 | 101.94504 | 5841 ft | 226 kts | 227° |
| 2026-05-08 00:29 | 2.51010 | 101.93598 | 5616 ft | 222 kts | 230° |
| 2026-05-08 00:30 | 2.50059 | 101.92403 | 5329 ft | 216 kts | 231° |
| 2026-05-08 00:30 | 2.49310 | 101.91410 | 5187 ft | 204 kts | 232° |
| 2026-05-08 00:30 | 2.48485 | 101.90277 | 4882 ft | 197 kts | 233° |
| 2026-05-08 00:30 | 2.47904 | 101.89061 | 4534 ft | 194 kts | 261° |
| 2026-05-08 00:31 | 2.48229 | 101.87793 | 4319 ft | 185 kts | 302° |
| 2026-05-08 00:31 | 2.49238 | 101.87047 | 4142 ft | 178 kts | 336° |
| 2026-05-08 00:31 | 2.50411 | 101.86655 | 4029 ft | 177 kts | 341° |
| 2026-05-08 00:31 | 2.51615 | 101.86301 | 3896 ft | 178 kts | 342° |
| 2026-05-08 00:32 | 2.52820 | 101.85964 | 3761 ft | 178 kts | 343° |
| 2026-05-08 00:32 | 2.54005 | 101.85644 | 3627 ft | 178 kts | 343° |
| 2026-05-08 00:32 | 2.55184 | 101.85288 | 3447 ft | 174 kts | 334° |
| 2026-05-08 00:32 | 2.56205 | 101.84665 | 3286 ft | 170 kts | 323° |
| 2026-05-08 00:33 | 2.57193 | 101.83998 | 3131 ft | 169 kts | 323° |
| 2026-05-08 00:33 | 2.58165 | 101.83343 | 3007 ft | 168 kts | 324° |
| 2026-05-08 00:33 | 2.59146 | 101.82688 | 2846 ft | 168 kts | 324° |
| 2026-05-08 00:33 | 2.59998 | 101.82118 | 2698 ft | 168 kts | 324° |
| 2026-05-08 00:34 | 2.60971 | 101.81466 | 2515 ft | 166 kts | 324° |
| 2026-05-08 00:34 | 2.61874 | 101.80865 | 2427 ft | 152 kts | 324° |
| 2026-05-08 00:34 | 2.62769 | 101.80265 | 2497 ft | 161 kts | 324° |
| 2026-05-08 00:34 | 2.63716 | 101.79632 | 2479 ft | 161 kts | 324° |
| 2026-05-08 00:35 | 2.64662 | 101.78999 | 2483 ft | 167 kts | 323° |
| 2026-05-08 00:35 | 2.65655 | 101.78348 | 2462 ft | 173 kts | 325° |
| 2026-05-08 00:35 | 2.66662 | 101.77691 | 2302 ft | 169 kts | 324° |
| 2026-05-08 00:35 | 2.67624 | 101.77047 | 2059 ft | 165 kts | 324° |
| 2026-05-08 00:36 | 2.68596 | 101.76395 | 1868 ft | 170 kts | 324° |
| 2026-05-08 00:36 | 2.69568 | 101.75730 | 1536 ft | 168 kts | 323° |
| 2026-05-08 00:36 | 2.70513 | 101.75075 | 1104 ft | 165 kts | 324° |
| 2026-05-08 00:36 | 2.71441 | 101.74464 | 834 ft | 159 kts | 325° |
| 2026-05-08 00:37 | 2.72357 | 101.73851 | 695 ft | 158 kts | 325° |
| 2026-05-08 00:37 | 2.73283 | 101.73237 | 537 ft | 163 kts | 325° |
| 2026-05-08 00:37 | 2.74230 | 101.72607 | 282 ft | 163 kts | 326° |
| 2026-05-08 00:38 | 2.75955 | 101.71452 | 83 ft | 121 kts | 327° |
| 2026-05-08 00:38 | 2.76539 | 101.71062 | 83 ft | 78 kts | 330° |
| 2026-05-08 00:38 | 2.76871 | 101.70848 | 83 ft | 35 kts | 329° |
| 2026-05-08 00:38 | 2.76974 | 101.70754 | 83 ft | 13 kts | 277° |
| 2026-05-08 00:39 | 2.76942 | 101.70675 | 83 ft | 12 kts | 235° |
| 2026-05-08 00:39 | 2.76888 | 101.70622 | 83 ft | 10 kts | 187° |
| 2026-05-08 00:39 | 2.76824 | 101.70644 | 83 ft | 10 kts | 149° |
| 2026-05-08 00:39 | 2.76753 | 101.70691 | 83 ft | 14 kts | 146° |
| 2026-05-08 00:40 | 2.76662 | 101.70753 | 83 ft | 17 kts | 146° |
| 2026-05-08 00:40 | 2.76547 | 101.70829 | 83 ft | 21 kts | 146° |
| 2026-05-08 00:40 | 2.76416 | 101.70917 | 83 ft | 24 kts | 147° |
| 2026-05-08 00:40 | 2.76267 | 101.71016 | 83 ft | 27 kts | 146° |
| 2026-05-08 00:41 | 2.76096 | 101.71131 | 83 ft | 30 kts | 146° |
| 2026-05-08 00:41 | 2.75940 | 101.71235 | 83 ft | 21 kts | 147° |
| 2026-05-08 00:41 | 2.75811 | 101.71326 | 83 ft | 24 kts | 146° |
| 2026-05-08 00:41 | 2.75728 | 101.71380 | 83 ft | 14 kts | 147° |
| 2026-05-08 00:42 | 2.75633 | 101.71442 | 83 ft | 18 kts | 146° |
| 2026-05-08 00:42 | 2.75543 | 101.71484 | 83 ft | 10 kts | 200° |
| 2026-05-08 00:42 | 2.75473 | 101.71408 | 83 ft | 19 kts | 236° |
| 2026-05-08 00:42 | 2.75385 | 101.71280 | 83 ft | 18 kts | 235° |
| 2026-05-08 00:43 | 2.75297 | 101.71150 | 83 ft | 26 kts | 236° |
| 2026-05-08 00:43 | 2.75176 | 101.70972 | 83 ft | 33 kts | 236° |
| 2026-05-08 00:43 | 2.75083 | 101.70834 | 83 ft | 13 kts | 244° |
| 2026-05-08 00:43 | 2.75124 | 101.70751 | 83 ft | 16 kts | 324° |
| 2026-05-08 00:44 | 2.75224 | 101.70696 | 83 ft | 9 kts | 329° |
| 2026-05-08 00:44 | 2.75269 | 101.70667 | 83 ft | 2 kts | 326° |
| 2026-05-08 00:44 | 2.75270 | 101.70666 | 83 ft | 0 kts | 326° |